<?xml version="1.0" encoding="UTF-8" standalone="no" ?>
<gpx xmlns="http://www.topografix.com/GPX/1/1" xmlns:xsi="http://www.w3.org/2001/XMLSchema-instance" xsi:schemaLocation="http://www.topografix.com/GPX/1/1 http://www.topografix.com/GPX/1/1/gpx.xsd" version="1.1" creator="VisuGPX - https://www.visugpx.com">
  <metadata>
    <name>rando 4A du 10 novembre 2009</name>
    <desc><![CDATA[Rando de la journée des anciens d'Alcatel: les chateaux autour de Chevreuse]]></desc>
  </metadata>
  <trk>
    <name><![CDATA[rando_4a_du_10_11_2009]]></name>
    <trkseg>
      <trkpt lat="48.70619" lon="2.03897">
        <ele>66.948975</ele>
        <time>2009-11-10T08:40:55Z</time>
      </trkpt>
      <trkpt lat="48.70621" lon="2.03893">
        <ele>66.948975</ele>
        <time>2009-11-10T08:41:12Z</time>
      </trkpt>
      <trkpt lat="48.70615" lon="2.03883">
        <ele>66.948975</ele>
        <time>2009-11-10T08:41:26Z</time>
      </trkpt>
      <trkpt lat="48.70604" lon="2.03883">
        <ele>66.468262</ele>
        <time>2009-11-10T08:41:33Z</time>
      </trkpt>
      <trkpt lat="48.706" lon="2.03884">
        <ele>60.219727</ele>
        <time>2009-11-10T08:41:36Z</time>
      </trkpt>
      <trkpt lat="48.70598" lon="2.03883">
        <ele>55.413086</ele>
        <time>2009-11-10T08:41:38Z</time>
      </trkpt>
      <trkpt lat="48.70595" lon="2.03884">
        <ele>50.606567</ele>
        <time>2009-11-10T08:41:40Z</time>
      </trkpt>
      <trkpt lat="48.70592" lon="2.03882">
        <ele>42.916016</ele>
        <time>2009-11-10T08:41:44Z</time>
      </trkpt>
      <trkpt lat="48.70588" lon="2.03884">
        <ele>38.109375</ele>
        <time>2009-11-10T08:41:47Z</time>
      </trkpt>
      <trkpt lat="48.70587" lon="2.03885">
        <ele>38.109375</ele>
        <time>2009-11-10T08:41:48Z</time>
      </trkpt>
      <trkpt lat="48.70574" lon="2.03883">
        <ele>35.225464</ele>
        <time>2009-11-10T08:42:00Z</time>
      </trkpt>
      <trkpt lat="48.70569" lon="2.03882">
        <ele>33.783447</ele>
        <time>2009-11-10T08:42:03Z</time>
      </trkpt>
      <trkpt lat="48.70552" lon="2.03875">
        <ele>34.26416</ele>
        <time>2009-11-10T08:42:19Z</time>
      </trkpt>
      <trkpt lat="48.70546" lon="2.0387">
        <ele>37.628662</ele>
        <time>2009-11-10T08:42:27Z</time>
      </trkpt>
      <trkpt lat="48.7054" lon="2.03864">
        <ele>40.993408</ele>
        <time>2009-11-10T08:42:33Z</time>
      </trkpt>
      <trkpt lat="48.70537" lon="2.0386">
        <ele>43.877319</ele>
        <time>2009-11-10T08:42:37Z</time>
      </trkpt>
      <trkpt lat="48.70531" lon="2.03855">
        <ele>47.722534</ele>
        <time>2009-11-10T08:42:43Z</time>
      </trkpt>
      <trkpt lat="48.70528" lon="2.0385">
        <ele>50.125977</ele>
        <time>2009-11-10T08:42:47Z</time>
      </trkpt>
      <trkpt lat="48.70522" lon="2.03845">
        <ele>53.971191</ele>
        <time>2009-11-10T08:42:53Z</time>
      </trkpt>
      <trkpt lat="48.70519" lon="2.03842">
        <ele>55.413086</ele>
        <time>2009-11-10T08:42:56Z</time>
      </trkpt>
      <trkpt lat="48.7051" lon="2.03834">
        <ele>58.297119</ele>
        <time>2009-11-10T08:43:04Z</time>
      </trkpt>
      <trkpt lat="48.70508" lon="2.03833">
        <ele>59.258423</ele>
        <time>2009-11-10T08:43:06Z</time>
      </trkpt>
      <trkpt lat="48.70501" lon="2.03825">
        <ele>62.142334</ele>
        <time>2009-11-10T08:43:13Z</time>
      </trkpt>
      <trkpt lat="48.70496" lon="2.03816">
        <ele>65.987671</ele>
        <time>2009-11-10T08:43:20Z</time>
      </trkpt>
      <trkpt lat="48.70496" lon="2.03814">
        <ele>65.987671</ele>
        <time>2009-11-10T08:43:21Z</time>
      </trkpt>
      <trkpt lat="48.70493" lon="2.03805">
        <ele>67.910278</ele>
        <time>2009-11-10T08:43:27Z</time>
      </trkpt>
      <trkpt lat="48.70493" lon="2.03786">
        <ele>71.274902</ele>
        <time>2009-11-10T08:43:37Z</time>
      </trkpt>
      <trkpt lat="48.70488" lon="2.03772">
        <ele>73.197632</ele>
        <time>2009-11-10T08:43:48Z</time>
      </trkpt>
      <trkpt lat="48.70439" lon="2.03814">
        <ele>76.562134</ele>
        <time>2009-11-10T08:44:43Z</time>
      </trkpt>
      <trkpt lat="48.70439" lon="2.03822">
        <ele>76.081421</ele>
        <time>2009-11-10T08:44:47Z</time>
      </trkpt>
      <trkpt lat="48.70441" lon="2.03855">
        <ele>77.042847</ele>
        <time>2009-11-10T08:45:06Z</time>
      </trkpt>
      <trkpt lat="48.70443" lon="2.03889">
        <ele>77.042847</ele>
        <time>2009-11-10T08:45:26Z</time>
      </trkpt>
      <trkpt lat="48.70438" lon="2.03923">
        <ele>77.523438</ele>
        <time>2009-11-10T08:45:46Z</time>
      </trkpt>
      <trkpt lat="48.70434" lon="2.03936">
        <ele>77.523438</ele>
        <time>2009-11-10T08:45:55Z</time>
      </trkpt>
      <trkpt lat="48.70431" lon="2.03936">
        <ele>78.004028</ele>
        <time>2009-11-10T08:45:58Z</time>
      </trkpt>
      <trkpt lat="48.70411" lon="2.03942">
        <ele>78.484741</ele>
        <time>2009-11-10T08:46:17Z</time>
      </trkpt>
      <trkpt lat="48.70395" lon="2.03946">
        <ele>79.446045</ele>
        <time>2009-11-10T08:46:32Z</time>
      </trkpt>
      <trkpt lat="48.70378" lon="2.0395">
        <ele>80.888184</ele>
        <time>2009-11-10T08:46:47Z</time>
      </trkpt>
      <trkpt lat="48.70354" lon="2.03965">
        <ele>84.733398</ele>
        <time>2009-11-10T08:47:10Z</time>
      </trkpt>
      <trkpt lat="48.7034" lon="2.03984">
        <ele>86.656006</ele>
        <time>2009-11-10T08:47:28Z</time>
      </trkpt>
      <trkpt lat="48.70322" lon="2.04001">
        <ele>88.098022</ele>
        <time>2009-11-10T08:47:48Z</time>
      </trkpt>
      <trkpt lat="48.70303" lon="2.04015">
        <ele>90.981934</ele>
        <time>2009-11-10T08:48:08Z</time>
      </trkpt>
      <trkpt lat="48.70285" lon="2.04027">
        <ele>92.42395</ele>
        <time>2009-11-10T08:48:26Z</time>
      </trkpt>
      <trkpt lat="48.70268" lon="2.04038">
        <ele>92.904541</ele>
        <time>2009-11-10T08:48:43Z</time>
      </trkpt>
      <trkpt lat="48.70247" lon="2.04044">
        <ele>94.346558</ele>
        <time>2009-11-10T08:49:02Z</time>
      </trkpt>
      <trkpt lat="48.70224" lon="2.04052">
        <ele>96.269287</ele>
        <time>2009-11-10T08:49:23Z</time>
      </trkpt>
      <trkpt lat="48.70205" lon="2.04057">
        <ele>97.230469</ele>
        <time>2009-11-10T08:49:41Z</time>
      </trkpt>
      <trkpt lat="48.70187" lon="2.04064">
        <ele>99.153076</ele>
        <time>2009-11-10T08:49:59Z</time>
      </trkpt>
      <trkpt lat="48.70166" lon="2.04071">
        <ele>101.556396</ele>
        <time>2009-11-10T08:50:19Z</time>
      </trkpt>
      <trkpt lat="48.70149" lon="2.04073">
        <ele>103.479004</ele>
        <time>2009-11-10T08:50:38Z</time>
      </trkpt>
      <trkpt lat="48.70127" lon="2.04078">
        <ele>105.882446</ele>
        <time>2009-11-10T08:50:58Z</time>
      </trkpt>
      <trkpt lat="48.70104" lon="2.04082">
        <ele>107.805054</ele>
        <time>2009-11-10T08:51:18Z</time>
      </trkpt>
      <trkpt lat="48.70087" lon="2.04085">
        <ele>108.766235</ele>
        <time>2009-11-10T08:51:33Z</time>
      </trkpt>
      <trkpt lat="48.7005" lon="2.04086">
        <ele>113.092285</ele>
        <time>2009-11-10T08:52:11Z</time>
      </trkpt>
      <trkpt lat="48.70035" lon="2.04082">
        <ele>116.456787</ele>
        <time>2009-11-10T08:52:30Z</time>
      </trkpt>
      <trkpt lat="48.70016" lon="2.04071">
        <ele>119.34082</ele>
        <time>2009-11-10T08:52:55Z</time>
      </trkpt>
      <trkpt lat="48.69996" lon="2.04071">
        <ele>122.705444</ele>
        <time>2009-11-10T08:53:17Z</time>
      </trkpt>
      <trkpt lat="48.69977" lon="2.0406">
        <ele>125.589355</ele>
        <time>2009-11-10T08:53:40Z</time>
      </trkpt>
      <trkpt lat="48.69968" lon="2.04047">
        <ele>127.511963</ele>
        <time>2009-11-10T08:53:58Z</time>
      </trkpt>
      <trkpt lat="48.69956" lon="2.04039">
        <ele>130.395996</ele>
        <time>2009-11-10T08:54:15Z</time>
      </trkpt>
      <trkpt lat="48.69943" lon="2.04031">
        <ele>133.279907</ele>
        <time>2009-11-10T08:54:33Z</time>
      </trkpt>
      <trkpt lat="48.69928" lon="2.04024">
        <ele>135.202515</ele>
        <time>2009-11-10T08:54:52Z</time>
      </trkpt>
      <trkpt lat="48.69915" lon="2.04013">
        <ele>136.644653</ele>
        <time>2009-11-10T08:55:12Z</time>
      </trkpt>
      <trkpt lat="48.69903" lon="2.04004">
        <ele>139.528442</ele>
        <time>2009-11-10T08:55:33Z</time>
      </trkpt>
      <trkpt lat="48.69899" lon="2.04001">
        <ele>141.45105</ele>
        <time>2009-11-10T08:55:40Z</time>
      </trkpt>
      <trkpt lat="48.6989" lon="2.03996">
        <ele>144.335205</ele>
        <time>2009-11-10T08:55:57Z</time>
      </trkpt>
      <trkpt lat="48.69878" lon="2.03993">
        <ele>147.218994</ele>
        <time>2009-11-10T08:56:11Z</time>
      </trkpt>
      <trkpt lat="48.69868" lon="2.03983">
        <ele>150.103027</ele>
        <time>2009-11-10T08:56:31Z</time>
      </trkpt>
      <trkpt lat="48.69856" lon="2.03975">
        <ele>153.467651</ele>
        <time>2009-11-10T08:56:50Z</time>
      </trkpt>
      <trkpt lat="48.69836" lon="2.03964">
        <ele>155.390259</ele>
        <time>2009-11-10T08:57:12Z</time>
      </trkpt>
      <trkpt lat="48.69817" lon="2.03956">
        <ele>158.27417</ele>
        <time>2009-11-10T08:57:34Z</time>
      </trkpt>
      <trkpt lat="48.69801" lon="2.03939">
        <ele>161.638916</ele>
        <time>2009-11-10T08:57:59Z</time>
      </trkpt>
      <trkpt lat="48.69755" lon="2.03907">
        <ele>164.042114</ele>
        <time>2009-11-10T08:58:50Z</time>
      </trkpt>
      <trkpt lat="48.69726" lon="2.03887">
        <ele>165.003418</ele>
        <time>2009-11-10T08:59:21Z</time>
      </trkpt>
      <trkpt lat="48.69677" lon="2.03862">
        <ele>165.484131</ele>
        <time>2009-11-10T09:00:11Z</time>
      </trkpt>
      <trkpt lat="48.69649" lon="2.03846">
        <ele>165.003418</ele>
        <time>2009-11-10T09:00:38Z</time>
      </trkpt>
      <trkpt lat="48.69622" lon="2.03823">
        <ele>165.003418</ele>
        <time>2009-11-10T09:01:07Z</time>
      </trkpt>
      <trkpt lat="48.6959" lon="2.03805">
        <ele>163.561523</ele>
        <time>2009-11-10T09:01:41Z</time>
      </trkpt>
      <trkpt lat="48.69553" lon="2.0378">
        <ele>163.080811</ele>
        <time>2009-11-10T09:02:16Z</time>
      </trkpt>
      <trkpt lat="48.69533" lon="2.03763">
        <ele>162.119507</ele>
        <time>2009-11-10T09:02:37Z</time>
      </trkpt>
      <trkpt lat="48.69527" lon="2.03758">
        <ele>161.638916</ele>
        <time>2009-11-10T09:02:44Z</time>
      </trkpt>
      <trkpt lat="48.69499" lon="2.03737">
        <ele>160.67749</ele>
        <time>2009-11-10T09:03:13Z</time>
      </trkpt>
      <trkpt lat="48.69493" lon="2.03729">
        <ele>159.716187</ele>
        <time>2009-11-10T09:03:33Z</time>
      </trkpt>
      <trkpt lat="48.69484" lon="2.03725">
        <ele>159.716187</ele>
        <time>2009-11-10T09:03:56Z</time>
      </trkpt>
      <trkpt lat="48.69464" lon="2.03706">
        <ele>158.27417</ele>
        <time>2009-11-10T09:04:45Z</time>
      </trkpt>
      <trkpt lat="48.6944" lon="2.03684">
        <ele>157.312866</ele>
        <time>2009-11-10T09:05:14Z</time>
      </trkpt>
      <trkpt lat="48.69401" lon="2.03659">
        <ele>153.467651</ele>
        <time>2009-11-10T09:05:58Z</time>
      </trkpt>
      <trkpt lat="48.69369" lon="2.03643">
        <ele>151.544922</ele>
        <time>2009-11-10T09:06:25Z</time>
      </trkpt>
      <trkpt lat="48.69356" lon="2.03633">
        <ele>150.583618</ele>
        <time>2009-11-10T09:06:37Z</time>
      </trkpt>
      <trkpt lat="48.69324" lon="2.03611">
        <ele>151.064209</ele>
        <time>2009-11-10T09:07:04Z</time>
      </trkpt>
      <trkpt lat="48.69295" lon="2.03593">
        <ele>152.025757</ele>
        <time>2009-11-10T09:07:29Z</time>
      </trkpt>
      <trkpt lat="48.69271" lon="2.03573">
        <ele>152.506348</ele>
        <time>2009-11-10T09:07:52Z</time>
      </trkpt>
      <trkpt lat="48.69239" lon="2.0355">
        <ele>154.428955</ele>
        <time>2009-11-10T09:08:23Z</time>
      </trkpt>
      <trkpt lat="48.69222" lon="2.03542">
        <ele>154.909546</ele>
        <time>2009-11-10T09:08:46Z</time>
      </trkpt>
      <trkpt lat="48.69223" lon="2.03538">
        <ele>155.390259</ele>
        <time>2009-11-10T09:09:01Z</time>
      </trkpt>
      <trkpt lat="48.69222" lon="2.03526">
        <ele>155.390259</ele>
        <time>2009-11-10T09:09:07Z</time>
      </trkpt>
      <trkpt lat="48.69216" lon="2.03506">
        <ele>155.390259</ele>
        <time>2009-11-10T09:09:29Z</time>
      </trkpt>
      <trkpt lat="48.69218" lon="2.03495">
        <ele>155.870972</ele>
        <time>2009-11-10T09:09:48Z</time>
      </trkpt>
      <trkpt lat="48.69216" lon="2.03493">
        <ele>155.390259</ele>
        <time>2009-11-10T09:10:24Z</time>
      </trkpt>
      <trkpt lat="48.69213" lon="2.03505">
        <ele>155.390259</ele>
        <time>2009-11-10T09:10:48Z</time>
      </trkpt>
      <trkpt lat="48.69205" lon="2.03529">
        <ele>156.832153</ele>
        <time>2009-11-10T09:11:25Z</time>
      </trkpt>
      <trkpt lat="48.6918" lon="2.03516">
        <ele>158.754761</ele>
        <time>2009-11-10T09:11:49Z</time>
      </trkpt>
      <trkpt lat="48.69175" lon="2.03511">
        <ele>157.793579</ele>
        <time>2009-11-10T09:12:27Z</time>
      </trkpt>
      <trkpt lat="48.69176" lon="2.0351">
        <ele>156.832153</ele>
        <time>2009-11-10T09:12:34Z</time>
      </trkpt>
      <trkpt lat="48.69201" lon="2.03519">
        <ele>155.870972</ele>
        <time>2009-11-10T09:12:56Z</time>
      </trkpt>
      <trkpt lat="48.69213" lon="2.03511">
        <ele>156.351563</ele>
        <time>2009-11-10T09:13:16Z</time>
      </trkpt>
      <trkpt lat="48.6921" lon="2.03509">
        <ele>155.870972</ele>
        <time>2009-11-10T09:13:46Z</time>
      </trkpt>
      <trkpt lat="48.69198" lon="2.03517">
        <ele>156.832153</ele>
        <time>2009-11-10T09:14:30Z</time>
      </trkpt>
      <trkpt lat="48.69183" lon="2.03507">
        <ele>156.832153</ele>
        <time>2009-11-10T09:14:46Z</time>
      </trkpt>
      <trkpt lat="48.69161" lon="2.03501">
        <ele>157.793579</ele>
        <time>2009-11-10T09:15:07Z</time>
      </trkpt>
      <trkpt lat="48.69157" lon="2.03492">
        <ele>157.793579</ele>
        <time>2009-11-10T09:15:22Z</time>
      </trkpt>
      <trkpt lat="48.69155" lon="2.03488">
        <ele>157.793579</ele>
        <time>2009-11-10T09:15:36Z</time>
      </trkpt>
      <trkpt lat="48.69154" lon="2.03483">
        <ele>158.27417</ele>
        <time>2009-11-10T09:15:52Z</time>
      </trkpt>
      <trkpt lat="48.69138" lon="2.03453">
        <ele>159.235474</ele>
        <time>2009-11-10T09:16:13Z</time>
      </trkpt>
      <trkpt lat="48.69124" lon="2.03434">
        <ele>160.196899</ele>
        <time>2009-11-10T09:16:30Z</time>
      </trkpt>
      <trkpt lat="48.69121" lon="2.03408">
        <ele>160.196899</ele>
        <time>2009-11-10T09:16:48Z</time>
      </trkpt>
      <trkpt lat="48.6912" lon="2.03386">
        <ele>160.196899</ele>
        <time>2009-11-10T09:17:06Z</time>
      </trkpt>
      <trkpt lat="48.69114" lon="2.03363">
        <ele>160.196899</ele>
        <time>2009-11-10T09:17:43Z</time>
      </trkpt>
      <trkpt lat="48.69105" lon="2.03356">
        <ele>160.67749</ele>
        <time>2009-11-10T09:17:55Z</time>
      </trkpt>
      <trkpt lat="48.69086" lon="2.03353">
        <ele>160.67749</ele>
        <time>2009-11-10T09:18:14Z</time>
      </trkpt>
      <trkpt lat="48.69075" lon="2.03349">
        <ele>160.67749</ele>
        <time>2009-11-10T09:18:26Z</time>
      </trkpt>
      <trkpt lat="48.69053" lon="2.03337">
        <ele>161.158203</ele>
        <time>2009-11-10T09:18:48Z</time>
      </trkpt>
      <trkpt lat="48.69032" lon="2.03328">
        <ele>161.158203</ele>
        <time>2009-11-10T09:19:10Z</time>
      </trkpt>
      <trkpt lat="48.69014" lon="2.0332">
        <ele>161.638916</ele>
        <time>2009-11-10T09:19:31Z</time>
      </trkpt>
      <trkpt lat="48.69007" lon="2.03319">
        <ele>161.638916</ele>
        <time>2009-11-10T09:19:48Z</time>
      </trkpt>
      <trkpt lat="48.68986" lon="2.03311">
        <ele>162.119507</ele>
        <time>2009-11-10T09:20:07Z</time>
      </trkpt>
      <trkpt lat="48.68963" lon="2.03303">
        <ele>162.119507</ele>
        <time>2009-11-10T09:20:27Z</time>
      </trkpt>
      <trkpt lat="48.68942" lon="2.03294">
        <ele>163.080811</ele>
        <time>2009-11-10T09:20:45Z</time>
      </trkpt>
      <trkpt lat="48.6892" lon="2.03284">
        <ele>163.080811</ele>
        <time>2009-11-10T09:21:05Z</time>
      </trkpt>
      <trkpt lat="48.689" lon="2.03275">
        <ele>163.561523</ele>
        <time>2009-11-10T09:21:23Z</time>
      </trkpt>
      <trkpt lat="48.68878" lon="2.03266">
        <ele>164.042114</ele>
        <time>2009-11-10T09:21:43Z</time>
      </trkpt>
      <trkpt lat="48.68859" lon="2.03257">
        <ele>164.522705</ele>
        <time>2009-11-10T09:22:00Z</time>
      </trkpt>
      <trkpt lat="48.6884" lon="2.03249">
        <ele>164.522705</ele>
        <time>2009-11-10T09:22:17Z</time>
      </trkpt>
      <trkpt lat="48.68819" lon="2.03237">
        <ele>165.003418</ele>
        <time>2009-11-10T09:22:38Z</time>
      </trkpt>
      <trkpt lat="48.68793" lon="2.03231">
        <ele>165.484131</ele>
        <time>2009-11-10T09:23:02Z</time>
      </trkpt>
      <trkpt lat="48.68775" lon="2.03223">
        <ele>166.445313</ele>
        <time>2009-11-10T09:23:19Z</time>
      </trkpt>
      <trkpt lat="48.68755" lon="2.03215">
        <ele>167.406738</ele>
        <time>2009-11-10T09:23:38Z</time>
      </trkpt>
      <trkpt lat="48.68733" lon="2.03206">
        <ele>167.406738</ele>
        <time>2009-11-10T09:23:59Z</time>
      </trkpt>
      <trkpt lat="48.68715" lon="2.032">
        <ele>167.887329</ele>
        <time>2009-11-10T09:24:17Z</time>
      </trkpt>
      <trkpt lat="48.68697" lon="2.03193">
        <ele>168.368042</ele>
        <time>2009-11-10T09:24:36Z</time>
      </trkpt>
      <trkpt lat="48.68677" lon="2.03186">
        <ele>168.848755</ele>
        <time>2009-11-10T09:24:57Z</time>
      </trkpt>
      <trkpt lat="48.68661" lon="2.03179">
        <ele>169.810059</ele>
        <time>2009-11-10T09:25:15Z</time>
      </trkpt>
      <trkpt lat="48.68642" lon="2.0317">
        <ele>170.290649</ele>
        <time>2009-11-10T09:25:34Z</time>
      </trkpt>
      <trkpt lat="48.68621" lon="2.03162">
        <ele>170.771362</ele>
        <time>2009-11-10T09:25:55Z</time>
      </trkpt>
      <trkpt lat="48.68604" lon="2.03155">
        <ele>170.771362</ele>
        <time>2009-11-10T09:26:12Z</time>
      </trkpt>
      <trkpt lat="48.68584" lon="2.03152">
        <ele>171.252075</ele>
        <time>2009-11-10T09:26:32Z</time>
      </trkpt>
      <trkpt lat="48.68564" lon="2.03171">
        <ele>171.732666</ele>
        <time>2009-11-10T09:26:55Z</time>
      </trkpt>
      <trkpt lat="48.68551" lon="2.03203">
        <ele>171.732666</ele>
        <time>2009-11-10T09:27:17Z</time>
      </trkpt>
      <trkpt lat="48.68537" lon="2.03201">
        <ele>172.213257</ele>
        <time>2009-11-10T09:27:30Z</time>
      </trkpt>
      <trkpt lat="48.68504" lon="2.03186">
        <ele>172.213257</ele>
        <time>2009-11-10T09:28:01Z</time>
      </trkpt>
      <trkpt lat="48.68477" lon="2.03175">
        <ele>172.69397</ele>
        <time>2009-11-10T09:28:27Z</time>
      </trkpt>
      <trkpt lat="48.6845" lon="2.03168">
        <ele>173.174683</ele>
        <time>2009-11-10T09:28:51Z</time>
      </trkpt>
      <trkpt lat="48.68426" lon="2.03156">
        <ele>173.174683</ele>
        <time>2009-11-10T09:29:14Z</time>
      </trkpt>
      <trkpt lat="48.68374" lon="2.03136">
        <ele>173.655273</ele>
        <time>2009-11-10T09:30:01Z</time>
      </trkpt>
      <trkpt lat="48.68321" lon="2.03121">
        <ele>173.174683</ele>
        <time>2009-11-10T09:30:57Z</time>
      </trkpt>
      <trkpt lat="48.68263" lon="2.03088">
        <ele>171.252075</ele>
        <time>2009-11-10T09:31:51Z</time>
      </trkpt>
      <trkpt lat="48.68233" lon="2.03081">
        <ele>170.771362</ele>
        <time>2009-11-10T09:32:43Z</time>
      </trkpt>
      <trkpt lat="48.68223" lon="2.031">
        <ele>171.252075</ele>
        <time>2009-11-10T09:33:08Z</time>
      </trkpt>
      <trkpt lat="48.68223" lon="2.03111">
        <ele>171.252075</ele>
        <time>2009-11-10T09:33:18Z</time>
      </trkpt>
      <trkpt lat="48.6823" lon="2.03136">
        <ele>171.732666</ele>
        <time>2009-11-10T09:33:41Z</time>
      </trkpt>
      <trkpt lat="48.68232" lon="2.0316">
        <ele>171.732666</ele>
        <time>2009-11-10T09:34:02Z</time>
      </trkpt>
      <trkpt lat="48.68229" lon="2.03189">
        <ele>172.213257</ele>
        <time>2009-11-10T09:34:22Z</time>
      </trkpt>
      <trkpt lat="48.68221" lon="2.03209">
        <ele>172.69397</ele>
        <time>2009-11-10T09:34:37Z</time>
      </trkpt>
      <trkpt lat="48.68213" lon="2.03219">
        <ele>172.69397</ele>
        <time>2009-11-10T09:34:45Z</time>
      </trkpt>
      <trkpt lat="48.68194" lon="2.03248">
        <ele>172.69397</ele>
        <time>2009-11-10T09:35:08Z</time>
      </trkpt>
      <trkpt lat="48.68145" lon="2.03294">
        <ele>171.252075</ele>
        <time>2009-11-10T09:36:19Z</time>
      </trkpt>
      <trkpt lat="48.6811" lon="2.03309">
        <ele>171.732666</ele>
        <time>2009-11-10T09:36:46Z</time>
      </trkpt>
      <trkpt lat="48.68087" lon="2.03316">
        <ele>172.213257</ele>
        <time>2009-11-10T09:37:07Z</time>
      </trkpt>
      <trkpt lat="48.68068" lon="2.03326">
        <ele>172.69397</ele>
        <time>2009-11-10T09:37:25Z</time>
      </trkpt>
      <trkpt lat="48.68043" lon="2.03338">
        <ele>172.213257</ele>
        <time>2009-11-10T09:37:49Z</time>
      </trkpt>
      <trkpt lat="48.68021" lon="2.03349">
        <ele>171.732666</ele>
        <time>2009-11-10T09:38:10Z</time>
      </trkpt>
      <trkpt lat="48.68012" lon="2.03353">
        <ele>171.732666</ele>
        <time>2009-11-10T09:38:26Z</time>
      </trkpt>
      <trkpt lat="48.68004" lon="2.03351">
        <ele>171.732666</ele>
        <time>2009-11-10T09:38:33Z</time>
      </trkpt>
      <trkpt lat="48.68003" lon="2.03333">
        <ele>171.732666</ele>
        <time>2009-11-10T09:38:50Z</time>
      </trkpt>
      <trkpt lat="48.68007" lon="2.03322">
        <ele>171.732666</ele>
        <time>2009-11-10T09:39:04Z</time>
      </trkpt>
      <trkpt lat="48.68014" lon="2.03278">
        <ele>171.732666</ele>
        <time>2009-11-10T09:39:31Z</time>
      </trkpt>
      <trkpt lat="48.68017" lon="2.03254">
        <ele>171.252075</ele>
        <time>2009-11-10T09:39:48Z</time>
      </trkpt>
      <trkpt lat="48.6802" lon="2.03225">
        <ele>171.732666</ele>
        <time>2009-11-10T09:40:05Z</time>
      </trkpt>
      <trkpt lat="48.68022" lon="2.03198">
        <ele>171.732666</ele>
        <time>2009-11-10T09:40:22Z</time>
      </trkpt>
      <trkpt lat="48.68026" lon="2.03162">
        <ele>170.771362</ele>
        <time>2009-11-10T09:40:43Z</time>
      </trkpt>
      <trkpt lat="48.68031" lon="2.03121">
        <ele>170.290649</ele>
        <time>2009-11-10T09:41:07Z</time>
      </trkpt>
      <trkpt lat="48.68036" lon="2.03081">
        <ele>169.810059</ele>
        <time>2009-11-10T09:41:31Z</time>
      </trkpt>
      <trkpt lat="48.68041" lon="2.03049">
        <ele>169.329468</ele>
        <time>2009-11-10T09:41:53Z</time>
      </trkpt>
      <trkpt lat="48.68051" lon="2.02995">
        <ele>168.848755</ele>
        <time>2009-11-10T09:42:28Z</time>
      </trkpt>
      <trkpt lat="48.68053" lon="2.02991">
        <ele>168.848755</ele>
        <time>2009-11-10T09:42:43Z</time>
      </trkpt>
      <trkpt lat="48.68034" lon="2.02969">
        <ele>167.406738</ele>
        <time>2009-11-10T09:43:06Z</time>
      </trkpt>
      <trkpt lat="48.68011" lon="2.02946">
        <ele>165.484131</ele>
        <time>2009-11-10T09:43:29Z</time>
      </trkpt>
      <trkpt lat="48.67987" lon="2.02937">
        <ele>164.522705</ele>
        <time>2009-11-10T09:43:49Z</time>
      </trkpt>
      <trkpt lat="48.67966" lon="2.02919">
        <ele>164.522705</ele>
        <time>2009-11-10T09:44:11Z</time>
      </trkpt>
      <trkpt lat="48.67963" lon="2.02863">
        <ele>165.964722</ele>
        <time>2009-11-10T09:44:48Z</time>
      </trkpt>
      <trkpt lat="48.67972" lon="2.02824">
        <ele>165.484131</ele>
        <time>2009-11-10T09:45:09Z</time>
      </trkpt>
      <trkpt lat="48.67972" lon="2.02786">
        <ele>165.003418</ele>
        <time>2009-11-10T09:45:31Z</time>
      </trkpt>
      <trkpt lat="48.67982" lon="2.02738">
        <ele>161.158203</ele>
        <time>2009-11-10T09:46:03Z</time>
      </trkpt>
      <trkpt lat="48.67982" lon="2.02712">
        <ele>156.351563</ele>
        <time>2009-11-10T09:46:29Z</time>
      </trkpt>
      <trkpt lat="48.67981" lon="2.02707">
        <ele>155.390259</ele>
        <time>2009-11-10T09:46:34Z</time>
      </trkpt>
      <trkpt lat="48.67934" lon="2.02645">
        <ele>149.141602</ele>
        <time>2009-11-10T09:47:28Z</time>
      </trkpt>
      <trkpt lat="48.67899" lon="2.02619">
        <ele>152.506348</ele>
        <time>2009-11-10T09:48:11Z</time>
      </trkpt>
      <trkpt lat="48.67893" lon="2.02612">
        <ele>152.025757</ele>
        <time>2009-11-10T09:48:20Z</time>
      </trkpt>
      <trkpt lat="48.67876" lon="2.02598">
        <ele>152.986938</ele>
        <time>2009-11-10T09:48:40Z</time>
      </trkpt>
      <trkpt lat="48.67857" lon="2.02578">
        <ele>153.948364</ele>
        <time>2009-11-10T09:49:02Z</time>
      </trkpt>
      <trkpt lat="48.67855" lon="2.02349">
        <ele>171.732666</ele>
        <time>2009-11-10T09:51:57Z</time>
      </trkpt>
      <trkpt lat="48.67869" lon="2.02348">
        <ele>172.69397</ele>
        <time>2009-11-10T09:53:55Z</time>
      </trkpt>
      <trkpt lat="48.67868" lon="2.02346">
        <ele>172.213257</ele>
        <time>2009-11-10T09:54:35Z</time>
      </trkpt>
      <trkpt lat="48.6787" lon="2.02355">
        <ele>172.69397</ele>
        <time>2009-11-10T09:55:08Z</time>
      </trkpt>
      <trkpt lat="48.67867" lon="2.02344">
        <ele>173.174683</ele>
        <time>2009-11-10T09:56:21Z</time>
      </trkpt>
      <trkpt lat="48.67874" lon="2.02341">
        <ele>173.174683</ele>
        <time>2009-11-10T09:56:42Z</time>
      </trkpt>
      <trkpt lat="48.67876" lon="2.02344">
        <ele>173.655273</ele>
        <time>2009-11-10T09:57:05Z</time>
      </trkpt>
      <trkpt lat="48.67865" lon="2.02315">
        <ele>173.174683</ele>
        <time>2009-11-10T09:57:27Z</time>
      </trkpt>
      <trkpt lat="48.6786" lon="2.02254">
        <ele>174.135864</ele>
        <time>2009-11-10T09:58:12Z</time>
      </trkpt>
      <trkpt lat="48.6787" lon="2.02222">
        <ele>174.616577</ele>
        <time>2009-11-10T09:58:31Z</time>
      </trkpt>
      <trkpt lat="48.67869" lon="2.02191">
        <ele>174.616577</ele>
        <time>2009-11-10T09:58:52Z</time>
      </trkpt>
      <trkpt lat="48.67864" lon="2.02148">
        <ele>174.135864</ele>
        <time>2009-11-10T09:59:19Z</time>
      </trkpt>
      <trkpt lat="48.67863" lon="2.02106">
        <ele>174.135864</ele>
        <time>2009-11-10T09:59:42Z</time>
      </trkpt>
      <trkpt lat="48.67863" lon="2.02071">
        <ele>173.655273</ele>
        <time>2009-11-10T10:00:03Z</time>
      </trkpt>
      <trkpt lat="48.67859" lon="2.02039">
        <ele>173.174683</ele>
        <time>2009-11-10T10:00:20Z</time>
      </trkpt>
      <trkpt lat="48.67862" lon="2.02007">
        <ele>173.174683</ele>
        <time>2009-11-10T10:00:40Z</time>
      </trkpt>
      <trkpt lat="48.6787" lon="2.01965">
        <ele>173.655273</ele>
        <time>2009-11-10T10:01:05Z</time>
      </trkpt>
      <trkpt lat="48.67873" lon="2.01936">
        <ele>173.174683</ele>
        <time>2009-11-10T10:01:21Z</time>
      </trkpt>
      <trkpt lat="48.67882" lon="2.01894">
        <ele>173.174683</ele>
        <time>2009-11-10T10:01:46Z</time>
      </trkpt>
      <trkpt lat="48.67894" lon="2.01805">
        <ele>173.655273</ele>
        <time>2009-11-10T10:02:34Z</time>
      </trkpt>
      <trkpt lat="48.679" lon="2.01764">
        <ele>173.655273</ele>
        <time>2009-11-10T10:02:58Z</time>
      </trkpt>
      <trkpt lat="48.67906" lon="2.01751">
        <ele>173.174683</ele>
        <time>2009-11-10T10:03:09Z</time>
      </trkpt>
      <trkpt lat="48.67896" lon="2.0172">
        <ele>173.174683</ele>
        <time>2009-11-10T10:03:28Z</time>
      </trkpt>
      <trkpt lat="48.67892" lon="2.01685">
        <ele>173.174683</ele>
        <time>2009-11-10T10:03:48Z</time>
      </trkpt>
      <trkpt lat="48.67885" lon="2.01654">
        <ele>172.69397</ele>
        <time>2009-11-10T10:04:08Z</time>
      </trkpt>
      <trkpt lat="48.67876" lon="2.01614">
        <ele>172.69397</ele>
        <time>2009-11-10T10:04:33Z</time>
      </trkpt>
      <trkpt lat="48.67869" lon="2.01572">
        <ele>173.174683</ele>
        <time>2009-11-10T10:04:57Z</time>
      </trkpt>
      <trkpt lat="48.67867" lon="2.01526">
        <ele>173.174683</ele>
        <time>2009-11-10T10:05:21Z</time>
      </trkpt>
      <trkpt lat="48.67862" lon="2.01495">
        <ele>172.69397</ele>
        <time>2009-11-10T10:05:41Z</time>
      </trkpt>
      <trkpt lat="48.67862" lon="2.01457">
        <ele>171.732666</ele>
        <time>2009-11-10T10:06:04Z</time>
      </trkpt>
      <trkpt lat="48.67863" lon="2.01446">
        <ele>171.252075</ele>
        <time>2009-11-10T10:06:22Z</time>
      </trkpt>
      <trkpt lat="48.67861" lon="2.01436">
        <ele>171.252075</ele>
        <time>2009-11-10T10:06:51Z</time>
      </trkpt>
      <trkpt lat="48.6786" lon="2.01414">
        <ele>169.329468</ele>
        <time>2009-11-10T10:07:05Z</time>
      </trkpt>
      <trkpt lat="48.67863" lon="2.01399">
        <ele>169.329468</ele>
        <time>2009-11-10T10:07:12Z</time>
      </trkpt>
      <trkpt lat="48.67862" lon="2.01392">
        <ele>169.329468</ele>
        <time>2009-11-10T10:07:17Z</time>
      </trkpt>
      <trkpt lat="48.67863" lon="2.01376">
        <ele>168.848755</ele>
        <time>2009-11-10T10:07:27Z</time>
      </trkpt>
      <trkpt lat="48.6788" lon="2.01332">
        <ele>165.003418</ele>
        <time>2009-11-10T10:08:07Z</time>
      </trkpt>
      <trkpt lat="48.67885" lon="2.01315">
        <ele>161.158203</ele>
        <time>2009-11-10T10:08:28Z</time>
      </trkpt>
      <trkpt lat="48.67893" lon="2.01305">
        <ele>157.793579</ele>
        <time>2009-11-10T10:08:44Z</time>
      </trkpt>
      <trkpt lat="48.67897" lon="2.01298">
        <ele>154.909546</ele>
        <time>2009-11-10T10:08:55Z</time>
      </trkpt>
      <trkpt lat="48.67926" lon="2.01293">
        <ele>148.661011</ele>
        <time>2009-11-10T10:09:49Z</time>
      </trkpt>
      <trkpt lat="48.67958" lon="2.01268">
        <ele>141.45105</ele>
        <time>2009-11-10T10:10:40Z</time>
      </trkpt>
      <trkpt lat="48.67971" lon="2.01226">
        <ele>144.335205</ele>
        <time>2009-11-10T10:12:57Z</time>
      </trkpt>
      <trkpt lat="48.67976" lon="2.01188">
        <ele>146.257813</ele>
        <time>2009-11-10T10:13:27Z</time>
      </trkpt>
      <trkpt lat="48.67978" lon="2.01134">
        <ele>149.622314</ele>
        <time>2009-11-10T10:13:59Z</time>
      </trkpt>
      <trkpt lat="48.67979" lon="2.01027">
        <ele>155.870972</ele>
        <time>2009-11-10T10:15:13Z</time>
      </trkpt>
      <trkpt lat="48.67982" lon="2.01019">
        <ele>156.351563</ele>
        <time>2009-11-10T10:15:19Z</time>
      </trkpt>
      <trkpt lat="48.6799" lon="2.00979">
        <ele>158.754761</ele>
        <time>2009-11-10T10:15:46Z</time>
      </trkpt>
      <trkpt lat="48.67993" lon="2.00949">
        <ele>161.638916</ele>
        <time>2009-11-10T10:16:05Z</time>
      </trkpt>
      <trkpt lat="48.67993" lon="2.00914">
        <ele>162.600098</ele>
        <time>2009-11-10T10:16:30Z</time>
      </trkpt>
      <trkpt lat="48.67991" lon="2.00909">
        <ele>163.561523</ele>
        <time>2009-11-10T10:16:34Z</time>
      </trkpt>
      <trkpt lat="48.68019" lon="2.00862">
        <ele>167.887329</ele>
        <time>2009-11-10T10:17:24Z</time>
      </trkpt>
      <trkpt lat="48.68033" lon="2.00859">
        <ele>170.771362</ele>
        <time>2009-11-10T10:17:43Z</time>
      </trkpt>
      <trkpt lat="48.68038" lon="2.00862">
        <ele>170.771362</ele>
        <time>2009-11-10T10:17:49Z</time>
      </trkpt>
      <trkpt lat="48.68043" lon="2.00864">
        <ele>170.771362</ele>
        <time>2009-11-10T10:17:54Z</time>
      </trkpt>
      <trkpt lat="48.68065" lon="2.00876">
        <ele>171.732666</ele>
        <time>2009-11-10T10:18:15Z</time>
      </trkpt>
      <trkpt lat="48.68075" lon="2.00887">
        <ele>171.732666</ele>
        <time>2009-11-10T10:18:25Z</time>
      </trkpt>
      <trkpt lat="48.68077" lon="2.00888">
        <ele>171.732666</ele>
        <time>2009-11-10T10:18:27Z</time>
      </trkpt>
      <trkpt lat="48.68103" lon="2.00918">
        <ele>172.213257</ele>
        <time>2009-11-10T10:18:53Z</time>
      </trkpt>
      <trkpt lat="48.68127" lon="2.00943">
        <ele>172.213257</ele>
        <time>2009-11-10T10:19:17Z</time>
      </trkpt>
      <trkpt lat="48.68146" lon="2.0097">
        <ele>172.213257</ele>
        <time>2009-11-10T10:19:38Z</time>
      </trkpt>
      <trkpt lat="48.68162" lon="2.01004">
        <ele>171.732666</ele>
        <time>2009-11-10T10:20:00Z</time>
      </trkpt>
      <trkpt lat="48.6817" lon="2.01021">
        <ele>170.771362</ele>
        <time>2009-11-10T10:20:13Z</time>
      </trkpt>
      <trkpt lat="48.68176" lon="2.01015">
        <ele>171.252075</ele>
        <time>2009-11-10T10:20:24Z</time>
      </trkpt>
      <trkpt lat="48.68181" lon="2.00981">
        <ele>172.213257</ele>
        <time>2009-11-10T10:20:47Z</time>
      </trkpt>
      <trkpt lat="48.68183" lon="2.00949">
        <ele>172.213257</ele>
        <time>2009-11-10T10:21:07Z</time>
      </trkpt>
      <trkpt lat="48.68184" lon="2.0091">
        <ele>173.174683</ele>
        <time>2009-11-10T10:21:31Z</time>
      </trkpt>
      <trkpt lat="48.68184" lon="2.00831">
        <ele>174.135864</ele>
        <time>2009-11-10T10:22:21Z</time>
      </trkpt>
      <trkpt lat="48.68184" lon="2.0079">
        <ele>174.616577</ele>
        <time>2009-11-10T10:22:44Z</time>
      </trkpt>
      <trkpt lat="48.68184" lon="2.00788">
        <ele>174.135864</ele>
        <time>2009-11-10T10:22:45Z</time>
      </trkpt>
      <trkpt lat="48.68189" lon="2.00748">
        <ele>175.09729</ele>
        <time>2009-11-10T10:23:05Z</time>
      </trkpt>
      <trkpt lat="48.68196" lon="2.00713">
        <ele>174.616577</ele>
        <time>2009-11-10T10:23:24Z</time>
      </trkpt>
      <trkpt lat="48.682" lon="2.00691">
        <ele>175.09729</ele>
        <time>2009-11-10T10:23:38Z</time>
      </trkpt>
      <trkpt lat="48.6821" lon="2.0066">
        <ele>174.616577</ele>
        <time>2009-11-10T10:23:57Z</time>
      </trkpt>
      <trkpt lat="48.68219" lon="2.00622">
        <ele>175.09729</ele>
        <time>2009-11-10T10:24:19Z</time>
      </trkpt>
      <trkpt lat="48.68228" lon="2.00584">
        <ele>174.616577</ele>
        <time>2009-11-10T10:24:43Z</time>
      </trkpt>
      <trkpt lat="48.68234" lon="2.00562">
        <ele>175.577881</ele>
        <time>2009-11-10T10:25:00Z</time>
      </trkpt>
      <trkpt lat="48.68246" lon="2.00519">
        <ele>176.058594</ele>
        <time>2009-11-10T10:25:26Z</time>
      </trkpt>
      <trkpt lat="48.68256" lon="2.00479">
        <ele>176.058594</ele>
        <time>2009-11-10T10:25:49Z</time>
      </trkpt>
      <trkpt lat="48.68266" lon="2.0044">
        <ele>176.058594</ele>
        <time>2009-11-10T10:26:11Z</time>
      </trkpt>
      <trkpt lat="48.68275" lon="2.00404">
        <ele>176.058594</ele>
        <time>2009-11-10T10:26:32Z</time>
      </trkpt>
      <trkpt lat="48.68285" lon="2.00367">
        <ele>175.577881</ele>
        <time>2009-11-10T10:26:53Z</time>
      </trkpt>
      <trkpt lat="48.68297" lon="2.00328">
        <ele>176.058594</ele>
        <time>2009-11-10T10:27:17Z</time>
      </trkpt>
      <trkpt lat="48.68304" lon="2.00289">
        <ele>176.539307</ele>
        <time>2009-11-10T10:27:40Z</time>
      </trkpt>
      <trkpt lat="48.68308" lon="2.00246">
        <ele>176.539307</ele>
        <time>2009-11-10T10:28:04Z</time>
      </trkpt>
      <trkpt lat="48.68311" lon="2.00206">
        <ele>176.539307</ele>
        <time>2009-11-10T10:28:27Z</time>
      </trkpt>
      <trkpt lat="48.68314" lon="2.00166">
        <ele>177.02002</ele>
        <time>2009-11-10T10:28:51Z</time>
      </trkpt>
      <trkpt lat="48.68311" lon="2.00136">
        <ele>177.50061</ele>
        <time>2009-11-10T10:29:11Z</time>
      </trkpt>
      <trkpt lat="48.68294" lon="2.00109">
        <ele>177.50061</ele>
        <time>2009-11-10T10:29:35Z</time>
      </trkpt>
      <trkpt lat="48.68277" lon="2.0008">
        <ele>177.981201</ele>
        <time>2009-11-10T10:29:58Z</time>
      </trkpt>
      <trkpt lat="48.68265" lon="2.00043">
        <ele>177.02002</ele>
        <time>2009-11-10T10:30:21Z</time>
      </trkpt>
      <trkpt lat="48.68266" lon="2.00013">
        <ele>177.02002</ele>
        <time>2009-11-10T10:30:41Z</time>
      </trkpt>
      <trkpt lat="48.68275" lon="1.99987">
        <ele>176.539307</ele>
        <time>2009-11-10T10:30:59Z</time>
      </trkpt>
      <trkpt lat="48.68287" lon="1.99962">
        <ele>177.50061</ele>
        <time>2009-11-10T10:31:17Z</time>
      </trkpt>
      <trkpt lat="48.68301" lon="1.9993">
        <ele>177.50061</ele>
        <time>2009-11-10T10:31:41Z</time>
      </trkpt>
      <trkpt lat="48.68312" lon="1.99901">
        <ele>177.50061</ele>
        <time>2009-11-10T10:32:01Z</time>
      </trkpt>
      <trkpt lat="48.68325" lon="1.99867">
        <ele>177.50061</ele>
        <time>2009-11-10T10:32:24Z</time>
      </trkpt>
      <trkpt lat="48.68335" lon="1.99836">
        <ele>177.02002</ele>
        <time>2009-11-10T10:32:44Z</time>
      </trkpt>
      <trkpt lat="48.68347" lon="1.99798">
        <ele>177.02002</ele>
        <time>2009-11-10T10:33:09Z</time>
      </trkpt>
      <trkpt lat="48.68358" lon="1.99765">
        <ele>177.50061</ele>
        <time>2009-11-10T10:33:31Z</time>
      </trkpt>
      <trkpt lat="48.6837" lon="1.99735">
        <ele>177.981201</ele>
        <time>2009-11-10T10:33:50Z</time>
      </trkpt>
      <trkpt lat="48.68382" lon="1.99704">
        <ele>177.981201</ele>
        <time>2009-11-10T10:34:11Z</time>
      </trkpt>
      <trkpt lat="48.68396" lon="1.99668">
        <ele>177.50061</ele>
        <time>2009-11-10T10:34:34Z</time>
      </trkpt>
      <trkpt lat="48.6841" lon="1.99631">
        <ele>177.50061</ele>
        <time>2009-11-10T10:34:58Z</time>
      </trkpt>
      <trkpt lat="48.68422" lon="1.99598">
        <ele>177.50061</ele>
        <time>2009-11-10T10:35:19Z</time>
      </trkpt>
      <trkpt lat="48.68436" lon="1.99558">
        <ele>177.02002</ele>
        <time>2009-11-10T10:35:43Z</time>
      </trkpt>
      <trkpt lat="48.68447" lon="1.99525">
        <ele>176.539307</ele>
        <time>2009-11-10T10:36:04Z</time>
      </trkpt>
      <trkpt lat="48.6846" lon="1.99485">
        <ele>176.539307</ele>
        <time>2009-11-10T10:36:29Z</time>
      </trkpt>
      <trkpt lat="48.68473" lon="1.99446">
        <ele>176.539307</ele>
        <time>2009-11-10T10:36:53Z</time>
      </trkpt>
      <trkpt lat="48.68484" lon="1.99411">
        <ele>176.539307</ele>
        <time>2009-11-10T10:37:16Z</time>
      </trkpt>
      <trkpt lat="48.68496" lon="1.99381">
        <ele>176.539307</ele>
        <time>2009-11-10T10:37:36Z</time>
      </trkpt>
      <trkpt lat="48.68508" lon="1.99345">
        <ele>176.539307</ele>
        <time>2009-11-10T10:37:59Z</time>
      </trkpt>
      <trkpt lat="48.68521" lon="1.99306">
        <ele>176.539307</ele>
        <time>2009-11-10T10:38:23Z</time>
      </trkpt>
      <trkpt lat="48.68533" lon="1.99267">
        <ele>176.539307</ele>
        <time>2009-11-10T10:38:46Z</time>
      </trkpt>
      <trkpt lat="48.68547" lon="1.99224">
        <ele>176.058594</ele>
        <time>2009-11-10T10:39:12Z</time>
      </trkpt>
      <trkpt lat="48.68557" lon="1.99183">
        <ele>176.058594</ele>
        <time>2009-11-10T10:39:37Z</time>
      </trkpt>
      <trkpt lat="48.68541" lon="1.99161">
        <ele>176.058594</ele>
        <time>2009-11-10T10:39:57Z</time>
      </trkpt>
      <trkpt lat="48.68516" lon="1.99143">
        <ele>176.058594</ele>
        <time>2009-11-10T10:40:21Z</time>
      </trkpt>
      <trkpt lat="48.68501" lon="1.99125">
        <ele>176.058594</ele>
        <time>2009-11-10T10:40:40Z</time>
      </trkpt>
      <trkpt lat="48.68503" lon="1.99092">
        <ele>175.577881</ele>
        <time>2009-11-10T10:41:00Z</time>
      </trkpt>
      <trkpt lat="48.68513" lon="1.99059">
        <ele>175.09729</ele>
        <time>2009-11-10T10:41:19Z</time>
      </trkpt>
      <trkpt lat="48.68521" lon="1.99029">
        <ele>173.655273</ele>
        <time>2009-11-10T10:41:38Z</time>
      </trkpt>
      <trkpt lat="48.68529" lon="1.98994">
        <ele>173.174683</ele>
        <time>2009-11-10T10:42:00Z</time>
      </trkpt>
      <trkpt lat="48.68535" lon="1.98975">
        <ele>173.174683</ele>
        <time>2009-11-10T10:42:18Z</time>
      </trkpt>
      <trkpt lat="48.68543" lon="1.98939">
        <ele>172.69397</ele>
        <time>2009-11-10T10:42:39Z</time>
      </trkpt>
      <trkpt lat="48.68543" lon="1.98925">
        <ele>172.213257</ele>
        <time>2009-11-10T10:42:53Z</time>
      </trkpt>
      <trkpt lat="48.68541" lon="1.98903">
        <ele>172.213257</ele>
        <time>2009-11-10T10:43:09Z</time>
      </trkpt>
      <trkpt lat="48.68541" lon="1.98861">
        <ele>170.771362</ele>
        <time>2009-11-10T10:43:31Z</time>
      </trkpt>
      <trkpt lat="48.68546" lon="1.98831">
        <ele>170.290649</ele>
        <time>2009-11-10T10:43:52Z</time>
      </trkpt>
      <trkpt lat="48.68548" lon="1.98829">
        <ele>169.810059</ele>
        <time>2009-11-10T10:43:55Z</time>
      </trkpt>
      <trkpt lat="48.68555" lon="1.98818">
        <ele>167.887329</ele>
        <time>2009-11-10T10:44:05Z</time>
      </trkpt>
      <trkpt lat="48.6858" lon="1.98791">
        <ele>161.638916</ele>
        <time>2009-11-10T10:44:35Z</time>
      </trkpt>
      <trkpt lat="48.6859" lon="1.98781">
        <ele>158.27417</ele>
        <time>2009-11-10T10:44:50Z</time>
      </trkpt>
      <trkpt lat="48.68616" lon="1.98733">
        <ele>148.18042</ele>
        <time>2009-11-10T10:45:38Z</time>
      </trkpt>
      <trkpt lat="48.68628" lon="1.98719">
        <ele>145.296387</ele>
        <time>2009-11-10T10:45:56Z</time>
      </trkpt>
      <trkpt lat="48.68641" lon="1.98704">
        <ele>143.373657</ele>
        <time>2009-11-10T10:46:16Z</time>
      </trkpt>
      <trkpt lat="48.68702" lon="1.98642">
        <ele>132.318604</ele>
        <time>2009-11-10T10:47:41Z</time>
      </trkpt>
      <trkpt lat="48.68705" lon="1.98632">
        <ele>131.837891</ele>
        <time>2009-11-10T10:47:47Z</time>
      </trkpt>
      <trkpt lat="48.68707" lon="1.98602">
        <ele>128.954102</ele>
        <time>2009-11-10T10:48:07Z</time>
      </trkpt>
      <trkpt lat="48.68711" lon="1.98587">
        <ele>127.511963</ele>
        <time>2009-11-10T10:48:18Z</time>
      </trkpt>
      <trkpt lat="48.6872" lon="1.98566">
        <ele>125.589355</ele>
        <time>2009-11-10T10:48:31Z</time>
      </trkpt>
      <trkpt lat="48.68751" lon="1.98511">
        <ele>121.26355</ele>
        <time>2009-11-10T10:49:15Z</time>
      </trkpt>
      <trkpt lat="48.68761" lon="1.98493">
        <ele>120.782837</ele>
        <time>2009-11-10T10:49:30Z</time>
      </trkpt>
      <trkpt lat="48.6877" lon="1.98477">
        <ele>120.782837</ele>
        <time>2009-11-10T10:49:44Z</time>
      </trkpt>
      <trkpt lat="48.68787" lon="1.98451">
        <ele>117.418213</ele>
        <time>2009-11-10T10:50:03Z</time>
      </trkpt>
      <trkpt lat="48.68788" lon="1.98448">
        <ele>116.456787</ele>
        <time>2009-11-10T10:50:05Z</time>
      </trkpt>
      <trkpt lat="48.68794" lon="1.98425">
        <ele>113.092285</ele>
        <time>2009-11-10T10:50:20Z</time>
      </trkpt>
      <trkpt lat="48.68793" lon="1.98399">
        <ele>112.130981</ele>
        <time>2009-11-10T10:50:37Z</time>
      </trkpt>
      <trkpt lat="48.68792" lon="1.98344">
        <ele>110.208252</ele>
        <time>2009-11-10T10:51:04Z</time>
      </trkpt>
      <trkpt lat="48.68809" lon="1.9831">
        <ele>109.246948</ele>
        <time>2009-11-10T10:51:29Z</time>
      </trkpt>
      <trkpt lat="48.68807" lon="1.98269">
        <ele>109.246948</ele>
        <time>2009-11-10T10:51:54Z</time>
      </trkpt>
      <trkpt lat="48.68804" lon="1.98261">
        <ele>108.766235</ele>
        <time>2009-11-10T10:52:00Z</time>
      </trkpt>
      <trkpt lat="48.68797" lon="1.98228">
        <ele>109.727661</ele>
        <time>2009-11-10T10:52:21Z</time>
      </trkpt>
      <trkpt lat="48.68772" lon="1.98189">
        <ele>108.766235</ele>
        <time>2009-11-10T10:52:54Z</time>
      </trkpt>
      <trkpt lat="48.68772" lon="1.98185">
        <ele>108.766235</ele>
        <time>2009-11-10T10:52:56Z</time>
      </trkpt>
      <trkpt lat="48.68787" lon="1.98168">
        <ele>106.843628</ele>
        <time>2009-11-10T10:53:16Z</time>
      </trkpt>
      <trkpt lat="48.68794" lon="1.98158">
        <ele>105.882446</ele>
        <time>2009-11-10T10:53:33Z</time>
      </trkpt>
      <trkpt lat="48.68797" lon="1.98152">
        <ele>105.401733</ele>
        <time>2009-11-10T10:53:37Z</time>
      </trkpt>
      <trkpt lat="48.68805" lon="1.98142">
        <ele>105.401733</ele>
        <time>2009-11-10T10:53:58Z</time>
      </trkpt>
      <trkpt lat="48.68803" lon="1.98146">
        <ele>105.882446</ele>
        <time>2009-11-10T10:54:03Z</time>
      </trkpt>
      <trkpt lat="48.68793" lon="1.98158">
        <ele>106.843628</ele>
        <time>2009-11-10T10:54:26Z</time>
      </trkpt>
      <trkpt lat="48.68792" lon="1.98162">
        <ele>107.805054</ele>
        <time>2009-11-10T10:54:46Z</time>
      </trkpt>
      <trkpt lat="48.68788" lon="1.98155">
        <ele>107.805054</ele>
        <time>2009-11-10T10:55:32Z</time>
      </trkpt>
      <trkpt lat="48.68783" lon="1.98162">
        <ele>107.805054</ele>
        <time>2009-11-10T10:56:06Z</time>
      </trkpt>
      <trkpt lat="48.68779" lon="1.98165">
        <ele>107.805054</ele>
        <time>2009-11-10T10:56:27Z</time>
      </trkpt>
      <trkpt lat="48.68778" lon="1.98165">
        <ele>107.324341</ele>
        <time>2009-11-10T10:56:50Z</time>
      </trkpt>
      <trkpt lat="48.68778" lon="1.98162">
        <ele>107.805054</ele>
        <time>2009-11-10T10:58:42Z</time>
      </trkpt>
      <trkpt lat="48.68776" lon="1.9816">
        <ele>107.324341</ele>
        <time>2009-11-10T11:00:43Z</time>
      </trkpt>
      <trkpt lat="48.68777" lon="1.98158">
        <ele>105.882446</ele>
        <time>2009-11-10T11:01:02Z</time>
      </trkpt>
      <trkpt lat="48.6878" lon="1.98161">
        <ele>106.843628</ele>
        <time>2009-11-10T11:01:36Z</time>
      </trkpt>
      <trkpt lat="48.68787" lon="1.98179">
        <ele>107.324341</ele>
        <time>2009-11-10T11:05:59Z</time>
      </trkpt>
      <trkpt lat="48.68785" lon="1.98167">
        <ele>109.246948</ele>
        <time>2009-11-10T11:08:07Z</time>
      </trkpt>
      <trkpt lat="48.68776" lon="1.98157">
        <ele>109.246948</ele>
        <time>2009-11-10T11:08:34Z</time>
      </trkpt>
      <trkpt lat="48.68786" lon="1.9818">
        <ele>110.208252</ele>
        <time>2009-11-10T11:19:40Z</time>
      </trkpt>
      <trkpt lat="48.68787" lon="1.98148">
        <ele>110.688843</ele>
        <time>2009-11-10T11:32:29Z</time>
      </trkpt>
      <trkpt lat="48.68784" lon="1.9816">
        <ele>109.727661</ele>
        <time>2009-11-10T11:44:28Z</time>
      </trkpt>
      <trkpt lat="48.68782" lon="1.98154">
        <ele>109.727661</ele>
        <time>2009-11-10T11:45:12Z</time>
      </trkpt>
      <trkpt lat="48.68787" lon="1.98147">
        <ele>109.727661</ele>
        <time>2009-11-10T11:46:52Z</time>
      </trkpt>
      <trkpt lat="48.68784" lon="1.98148">
        <ele>109.727661</ele>
        <time>2009-11-10T11:50:06Z</time>
      </trkpt>
      <trkpt lat="48.68782" lon="1.98158">
        <ele>110.688843</ele>
        <time>2009-11-10T11:53:42Z</time>
      </trkpt>
      <trkpt lat="48.68783" lon="1.98161">
        <ele>110.688843</ele>
        <time>2009-11-10T11:53:57Z</time>
      </trkpt>
      <trkpt lat="48.68785" lon="1.98165">
        <ele>110.688843</ele>
        <time>2009-11-10T11:54:20Z</time>
      </trkpt>
      <trkpt lat="48.68783" lon="1.9817">
        <ele>110.688843</ele>
        <time>2009-11-10T11:54:33Z</time>
      </trkpt>
      <trkpt lat="48.68778" lon="1.98177">
        <ele>110.688843</ele>
        <time>2009-11-10T11:55:18Z</time>
      </trkpt>
      <trkpt lat="48.68782" lon="1.98198">
        <ele>111.169556</ele>
        <time>2009-11-10T11:55:39Z</time>
      </trkpt>
      <trkpt lat="48.68791" lon="1.98219">
        <ele>111.169556</ele>
        <time>2009-11-10T11:56:01Z</time>
      </trkpt>
      <trkpt lat="48.68801" lon="1.98229">
        <ele>111.169556</ele>
        <time>2009-11-10T11:56:13Z</time>
      </trkpt>
      <trkpt lat="48.68806" lon="1.98258">
        <ele>110.688843</ele>
        <time>2009-11-10T11:56:33Z</time>
      </trkpt>
      <trkpt lat="48.68808" lon="1.98266">
        <ele>110.688843</ele>
        <time>2009-11-10T11:56:38Z</time>
      </trkpt>
      <trkpt lat="48.68818" lon="1.98308">
        <ele>110.208252</ele>
        <time>2009-11-10T11:57:03Z</time>
      </trkpt>
      <trkpt lat="48.68819" lon="1.98309">
        <ele>110.688843</ele>
        <time>2009-11-10T11:57:04Z</time>
      </trkpt>
      <trkpt lat="48.6882" lon="1.98342">
        <ele>111.169556</ele>
        <time>2009-11-10T11:57:27Z</time>
      </trkpt>
      <trkpt lat="48.68815" lon="1.98371">
        <ele>113.092285</ele>
        <time>2009-11-10T11:57:48Z</time>
      </trkpt>
      <trkpt lat="48.68828" lon="1.98382">
        <ele>115.976196</ele>
        <time>2009-11-10T11:58:17Z</time>
      </trkpt>
      <trkpt lat="48.68867" lon="1.98393">
        <ele>118.860107</ele>
        <time>2009-11-10T11:59:02Z</time>
      </trkpt>
      <trkpt lat="48.68884" lon="1.98402">
        <ele>120.782837</ele>
        <time>2009-11-10T11:59:19Z</time>
      </trkpt>
      <trkpt lat="48.68895" lon="1.98418">
        <ele>123.666748</ele>
        <time>2009-11-10T11:59:39Z</time>
      </trkpt>
      <trkpt lat="48.68944" lon="1.98512">
        <ele>130.876709</ele>
        <time>2009-11-10T12:01:12Z</time>
      </trkpt>
      <trkpt lat="48.68955" lon="1.9854">
        <ele>132.318604</ele>
        <time>2009-11-10T12:01:33Z</time>
      </trkpt>
      <trkpt lat="48.68954" lon="1.98558">
        <ele>133.760498</ele>
        <time>2009-11-10T12:01:44Z</time>
      </trkpt>
      <trkpt lat="48.68956" lon="1.98561">
        <ele>134.721924</ele>
        <time>2009-11-10T12:01:55Z</time>
      </trkpt>
      <trkpt lat="48.69007" lon="1.98698">
        <ele>140.489868</ele>
        <time>2009-11-10T12:03:53Z</time>
      </trkpt>
      <trkpt lat="48.69007" lon="1.98732">
        <ele>142.893066</ele>
        <time>2009-11-10T12:04:22Z</time>
      </trkpt>
      <trkpt lat="48.69043" lon="1.98757">
        <ele>147.218994</ele>
        <time>2009-11-10T12:05:25Z</time>
      </trkpt>
      <trkpt lat="48.69069" lon="1.98747">
        <ele>150.583618</ele>
        <time>2009-11-10T12:05:51Z</time>
      </trkpt>
      <trkpt lat="48.69087" lon="1.98759">
        <ele>152.506348</ele>
        <time>2009-11-10T12:08:30Z</time>
      </trkpt>
      <trkpt lat="48.69079" lon="1.98769">
        <ele>158.27417</ele>
        <time>2009-11-10T12:09:45Z</time>
      </trkpt>
      <trkpt lat="48.6908" lon="1.98781">
        <ele>161.158203</ele>
        <time>2009-11-10T12:10:01Z</time>
      </trkpt>
      <trkpt lat="48.69088" lon="1.98819">
        <ele>167.406738</ele>
        <time>2009-11-10T12:10:39Z</time>
      </trkpt>
      <trkpt lat="48.69059" lon="1.989">
        <ele>173.174683</ele>
        <time>2009-11-10T12:11:54Z</time>
      </trkpt>
      <trkpt lat="48.68961" lon="1.9921">
        <ele>173.655273</ele>
        <time>2009-11-10T12:15:23Z</time>
      </trkpt>
      <trkpt lat="48.68951" lon="1.99222">
        <ele>174.135864</ele>
        <time>2009-11-10T12:15:30Z</time>
      </trkpt>
      <trkpt lat="48.68945" lon="1.99228">
        <ele>174.135864</ele>
        <time>2009-11-10T12:15:34Z</time>
      </trkpt>
      <trkpt lat="48.68922" lon="1.99258">
        <ele>174.616577</ele>
        <time>2009-11-10T12:15:54Z</time>
      </trkpt>
      <trkpt lat="48.68904" lon="1.99289">
        <ele>174.616577</ele>
        <time>2009-11-10T12:16:14Z</time>
      </trkpt>
      <trkpt lat="48.68892" lon="1.99323">
        <ele>175.09729</ele>
        <time>2009-11-10T12:16:37Z</time>
      </trkpt>
      <trkpt lat="48.68884" lon="1.9936">
        <ele>176.058594</ele>
        <time>2009-11-10T12:16:59Z</time>
      </trkpt>
      <trkpt lat="48.68876" lon="1.99399">
        <ele>175.577881</ele>
        <time>2009-11-10T12:17:21Z</time>
      </trkpt>
      <trkpt lat="48.68871" lon="1.99427">
        <ele>175.09729</ele>
        <time>2009-11-10T12:17:37Z</time>
      </trkpt>
      <trkpt lat="48.68869" lon="1.99444">
        <ele>176.058594</ele>
        <time>2009-11-10T12:17:47Z</time>
      </trkpt>
      <trkpt lat="48.68867" lon="1.9945">
        <ele>175.577881</ele>
        <time>2009-11-10T12:17:51Z</time>
      </trkpt>
      <trkpt lat="48.68864" lon="1.99474">
        <ele>176.058594</ele>
        <time>2009-11-10T12:18:06Z</time>
      </trkpt>
      <trkpt lat="48.68858" lon="1.99506">
        <ele>176.539307</ele>
        <time>2009-11-10T12:18:25Z</time>
      </trkpt>
      <trkpt lat="48.68852" lon="1.99546">
        <ele>176.539307</ele>
        <time>2009-11-10T12:18:49Z</time>
      </trkpt>
      <trkpt lat="48.68851" lon="1.99556">
        <ele>176.539307</ele>
        <time>2009-11-10T12:18:55Z</time>
      </trkpt>
      <trkpt lat="48.68847" lon="1.99575">
        <ele>176.539307</ele>
        <time>2009-11-10T12:19:06Z</time>
      </trkpt>
      <trkpt lat="48.68848" lon="1.99582">
        <ele>177.02002</ele>
        <time>2009-11-10T12:19:10Z</time>
      </trkpt>
      <trkpt lat="48.68842" lon="1.99618">
        <ele>177.50061</ele>
        <time>2009-11-10T12:19:31Z</time>
      </trkpt>
      <trkpt lat="48.68837" lon="1.99649">
        <ele>177.02002</ele>
        <time>2009-11-10T12:19:49Z</time>
      </trkpt>
      <trkpt lat="48.68832" lon="1.99678">
        <ele>177.50061</ele>
        <time>2009-11-10T12:20:06Z</time>
      </trkpt>
      <trkpt lat="48.68831" lon="1.99684">
        <ele>177.02002</ele>
        <time>2009-11-10T12:20:09Z</time>
      </trkpt>
      <trkpt lat="48.6883" lon="1.99698">
        <ele>177.02002</ele>
        <time>2009-11-10T12:20:17Z</time>
      </trkpt>
      <trkpt lat="48.68827" lon="1.99747">
        <ele>176.539307</ele>
        <time>2009-11-10T12:20:44Z</time>
      </trkpt>
      <trkpt lat="48.68826" lon="1.99786">
        <ele>176.539307</ele>
        <time>2009-11-10T12:21:06Z</time>
      </trkpt>
      <trkpt lat="48.68825" lon="1.99832">
        <ele>175.09729</ele>
        <time>2009-11-10T12:21:31Z</time>
      </trkpt>
      <trkpt lat="48.68825" lon="1.99866">
        <ele>174.616577</ele>
        <time>2009-11-10T12:21:50Z</time>
      </trkpt>
      <trkpt lat="48.68824" lon="1.99908">
        <ele>174.135864</ele>
        <time>2009-11-10T12:22:13Z</time>
      </trkpt>
      <trkpt lat="48.68827" lon="1.99954">
        <ele>172.69397</ele>
        <time>2009-11-10T12:22:38Z</time>
      </trkpt>
      <trkpt lat="48.68827" lon="1.99993">
        <ele>172.213257</ele>
        <time>2009-11-10T12:22:59Z</time>
      </trkpt>
      <trkpt lat="48.68829" lon="2.00015">
        <ele>172.213257</ele>
        <time>2009-11-10T12:23:12Z</time>
      </trkpt>
      <trkpt lat="48.68828" lon="2.00054">
        <ele>171.732666</ele>
        <time>2009-11-10T12:23:34Z</time>
      </trkpt>
      <trkpt lat="48.6883" lon="2.00094">
        <ele>170.771362</ele>
        <time>2009-11-10T12:23:55Z</time>
      </trkpt>
      <trkpt lat="48.68832" lon="2.00133">
        <ele>169.329468</ele>
        <time>2009-11-10T12:24:16Z</time>
      </trkpt>
      <trkpt lat="48.68834" lon="2.00158">
        <ele>168.368042</ele>
        <time>2009-11-10T12:24:29Z</time>
      </trkpt>
      <trkpt lat="48.68834" lon="2.00165">
        <ele>168.848755</ele>
        <time>2009-11-10T12:24:33Z</time>
      </trkpt>
      <trkpt lat="48.68834" lon="2.00173">
        <ele>168.368042</ele>
        <time>2009-11-10T12:24:37Z</time>
      </trkpt>
      <trkpt lat="48.68835" lon="2.00203">
        <ele>168.368042</ele>
        <time>2009-11-10T12:24:52Z</time>
      </trkpt>
      <trkpt lat="48.68835" lon="2.00213">
        <ele>168.368042</ele>
        <time>2009-11-10T12:24:57Z</time>
      </trkpt>
      <trkpt lat="48.68837" lon="2.00256">
        <ele>167.887329</ele>
        <time>2009-11-10T12:25:20Z</time>
      </trkpt>
      <trkpt lat="48.68837" lon="2.00302">
        <ele>167.406738</ele>
        <time>2009-11-10T12:25:45Z</time>
      </trkpt>
      <trkpt lat="48.6884" lon="2.00307">
        <ele>166.926025</ele>
        <time>2009-11-10T12:25:51Z</time>
      </trkpt>
      <trkpt lat="48.68851" lon="2.00388">
        <ele>162.600098</ele>
        <time>2009-11-10T12:27:20Z</time>
      </trkpt>
      <trkpt lat="48.68848" lon="2.00447">
        <ele>160.196899</ele>
        <time>2009-11-10T12:27:48Z</time>
      </trkpt>
      <trkpt lat="48.6884" lon="2.00474">
        <ele>160.196899</ele>
        <time>2009-11-10T12:28:02Z</time>
      </trkpt>
      <trkpt lat="48.68815" lon="2.00533">
        <ele>159.716187</ele>
        <time>2009-11-10T12:28:36Z</time>
      </trkpt>
      <trkpt lat="48.68808" lon="2.00599">
        <ele>157.793579</ele>
        <time>2009-11-10T12:29:21Z</time>
      </trkpt>
      <trkpt lat="48.68792" lon="2.00643">
        <ele>158.27417</ele>
        <time>2009-11-10T12:29:54Z</time>
      </trkpt>
      <trkpt lat="48.68787" lon="2.00675">
        <ele>158.754761</ele>
        <time>2009-11-10T12:30:11Z</time>
      </trkpt>
      <trkpt lat="48.68778" lon="2.00716">
        <ele>157.312866</ele>
        <time>2009-11-10T12:30:35Z</time>
      </trkpt>
      <trkpt lat="48.68769" lon="2.00755">
        <ele>154.909546</ele>
        <time>2009-11-10T12:30:58Z</time>
      </trkpt>
      <trkpt lat="48.6875" lon="2.00837">
        <ele>145.7771</ele>
        <time>2009-11-10T12:32:14Z</time>
      </trkpt>
      <trkpt lat="48.68755" lon="2.00839">
        <ele>146.257813</ele>
        <time>2009-11-10T12:32:42Z</time>
      </trkpt>
      <trkpt lat="48.68802" lon="2.00911">
        <ele>137.605835</ele>
        <time>2009-11-10T12:34:48Z</time>
      </trkpt>
      <trkpt lat="48.68816" lon="2.00942">
        <ele>134.241211</ele>
        <time>2009-11-10T12:35:12Z</time>
      </trkpt>
      <trkpt lat="48.68827" lon="2.00975">
        <ele>131.3573</ele>
        <time>2009-11-10T12:35:38Z</time>
      </trkpt>
      <trkpt lat="48.68864" lon="2.0107">
        <ele>123.666748</ele>
        <time>2009-11-10T12:36:55Z</time>
      </trkpt>
      <trkpt lat="48.68871" lon="2.01083">
        <ele>122.705444</ele>
        <time>2009-11-10T12:37:04Z</time>
      </trkpt>
      <trkpt lat="48.68893" lon="2.01136">
        <ele>120.302124</ele>
        <time>2009-11-10T12:37:34Z</time>
      </trkpt>
      <trkpt lat="48.68909" lon="2.01187">
        <ele>118.860107</ele>
        <time>2009-11-10T12:38:07Z</time>
      </trkpt>
      <trkpt lat="48.68926" lon="2.01235">
        <ele>117.898804</ele>
        <time>2009-11-10T12:38:35Z</time>
      </trkpt>
      <trkpt lat="48.68947" lon="2.01288">
        <ele>116.9375</ele>
        <time>2009-11-10T12:39:07Z</time>
      </trkpt>
      <trkpt lat="48.68969" lon="2.01342">
        <ele>114.53418</ele>
        <time>2009-11-10T12:39:43Z</time>
      </trkpt>
      <trkpt lat="48.68986" lon="2.0142">
        <ele>113.092285</ele>
        <time>2009-11-10T12:40:43Z</time>
      </trkpt>
      <trkpt lat="48.69012" lon="2.01466">
        <ele>114.053589</ele>
        <time>2009-11-10T12:41:40Z</time>
      </trkpt>
      <trkpt lat="48.69015" lon="2.01471">
        <ele>114.053589</ele>
        <time>2009-11-10T12:42:25Z</time>
      </trkpt>
      <trkpt lat="48.69021" lon="2.01475">
        <ele>114.053589</ele>
        <time>2009-11-10T12:42:35Z</time>
      </trkpt>
      <trkpt lat="48.69043" lon="2.01497">
        <ele>113.572998</ele>
        <time>2009-11-10T12:42:59Z</time>
      </trkpt>
      <trkpt lat="48.69064" lon="2.01529">
        <ele>113.092285</ele>
        <time>2009-11-10T12:43:25Z</time>
      </trkpt>
      <trkpt lat="48.69055" lon="2.01558">
        <ele>110.688843</ele>
        <time>2009-11-10T12:43:44Z</time>
      </trkpt>
      <trkpt lat="48.69041" lon="2.01577">
        <ele>109.246948</ele>
        <time>2009-11-10T12:44:05Z</time>
      </trkpt>
      <trkpt lat="48.68977" lon="2.01628">
        <ele>108.766235</ele>
        <time>2009-11-10T12:44:58Z</time>
      </trkpt>
      <trkpt lat="48.68951" lon="2.0165">
        <ele>108.766235</ele>
        <time>2009-11-10T12:45:26Z</time>
      </trkpt>
      <trkpt lat="48.68926" lon="2.01667">
        <ele>108.766235</ele>
        <time>2009-11-10T12:45:49Z</time>
      </trkpt>
      <trkpt lat="48.68902" lon="2.01673">
        <ele>109.246948</ele>
        <time>2009-11-10T12:46:11Z</time>
      </trkpt>
      <trkpt lat="48.68879" lon="2.0168">
        <ele>108.766235</ele>
        <time>2009-11-10T12:46:32Z</time>
      </trkpt>
      <trkpt lat="48.68858" lon="2.01694">
        <ele>110.688843</ele>
        <time>2009-11-10T12:46:53Z</time>
      </trkpt>
      <trkpt lat="48.68838" lon="2.01716">
        <ele>112.130981</ele>
        <time>2009-11-10T12:47:15Z</time>
      </trkpt>
      <trkpt lat="48.68819" lon="2.01745">
        <ele>113.092285</ele>
        <time>2009-11-10T12:47:39Z</time>
      </trkpt>
      <trkpt lat="48.68803" lon="2.01768">
        <ele>114.053589</ele>
        <time>2009-11-10T12:48:00Z</time>
      </trkpt>
      <trkpt lat="48.68786" lon="2.0179">
        <ele>114.53418</ele>
        <time>2009-11-10T12:48:20Z</time>
      </trkpt>
      <trkpt lat="48.68766" lon="2.01814">
        <ele>115.495605</ele>
        <time>2009-11-10T12:48:44Z</time>
      </trkpt>
      <trkpt lat="48.68745" lon="2.01834">
        <ele>114.53418</ele>
        <time>2009-11-10T12:49:07Z</time>
      </trkpt>
      <trkpt lat="48.6874" lon="2.01836">
        <ele>115.014893</ele>
        <time>2009-11-10T12:49:24Z</time>
      </trkpt>
      <trkpt lat="48.68732" lon="2.01838">
        <ele>114.53418</ele>
        <time>2009-11-10T12:49:46Z</time>
      </trkpt>
      <trkpt lat="48.68727" lon="2.01847">
        <ele>115.014893</ele>
        <time>2009-11-10T12:50:00Z</time>
      </trkpt>
      <trkpt lat="48.68725" lon="2.01851">
        <ele>114.53418</ele>
        <time>2009-11-10T12:50:21Z</time>
      </trkpt>
      <trkpt lat="48.68724" lon="2.01852">
        <ele>114.53418</ele>
        <time>2009-11-10T12:50:50Z</time>
      </trkpt>
      <trkpt lat="48.68725" lon="2.01852">
        <ele>115.014893</ele>
        <time>2009-11-10T12:51:05Z</time>
      </trkpt>
      <trkpt lat="48.68728" lon="2.0185">
        <ele>115.014893</ele>
        <time>2009-11-10T12:51:46Z</time>
      </trkpt>
      <trkpt lat="48.68727" lon="2.01867">
        <ele>114.53418</ele>
        <time>2009-11-10T12:52:09Z</time>
      </trkpt>
      <trkpt lat="48.68729" lon="2.0187">
        <ele>114.053589</ele>
        <time>2009-11-10T12:52:12Z</time>
      </trkpt>
      <trkpt lat="48.68737" lon="2.01868">
        <ele>114.053589</ele>
        <time>2009-11-10T12:52:23Z</time>
      </trkpt>
      <trkpt lat="48.68738" lon="2.01859">
        <ele>114.053589</ele>
        <time>2009-11-10T12:52:31Z</time>
      </trkpt>
      <trkpt lat="48.68741" lon="2.01858">
        <ele>112.611572</ele>
        <time>2009-11-10T12:52:44Z</time>
      </trkpt>
      <trkpt lat="48.68759" lon="2.01894">
        <ele>110.688843</ele>
        <time>2009-11-10T12:53:07Z</time>
      </trkpt>
      <trkpt lat="48.68777" lon="2.01946">
        <ele>108.285645</ele>
        <time>2009-11-10T12:53:51Z</time>
      </trkpt>
      <trkpt lat="48.6878" lon="2.01955">
        <ele>107.805054</ele>
        <time>2009-11-10T12:54:11Z</time>
      </trkpt>
      <trkpt lat="48.68782" lon="2.01952">
        <ele>108.766235</ele>
        <time>2009-11-10T12:54:29Z</time>
      </trkpt>
      <trkpt lat="48.6879" lon="2.01957">
        <ele>108.766235</ele>
        <time>2009-11-10T12:54:54Z</time>
      </trkpt>
      <trkpt lat="48.68798" lon="2.01993">
        <ele>108.285645</ele>
        <time>2009-11-10T12:55:32Z</time>
      </trkpt>
      <trkpt lat="48.68808" lon="2.02025">
        <ele>108.285645</ele>
        <time>2009-11-10T12:55:52Z</time>
      </trkpt>
      <trkpt lat="48.68819" lon="2.02059">
        <ele>109.246948</ele>
        <time>2009-11-10T12:56:17Z</time>
      </trkpt>
      <trkpt lat="48.68824" lon="2.02066">
        <ele>108.766235</ele>
        <time>2009-11-10T12:56:36Z</time>
      </trkpt>
      <trkpt lat="48.68823" lon="2.02065">
        <ele>108.766235</ele>
        <time>2009-11-10T12:56:46Z</time>
      </trkpt>
      <trkpt lat="48.68826" lon="2.02062">
        <ele>108.766235</ele>
        <time>2009-11-10T12:56:51Z</time>
      </trkpt>
      <trkpt lat="48.68852" lon="2.02051">
        <ele>108.766235</ele>
        <time>2009-11-10T12:57:14Z</time>
      </trkpt>
      <trkpt lat="48.68882" lon="2.02043">
        <ele>110.208252</ele>
        <time>2009-11-10T12:57:40Z</time>
      </trkpt>
      <trkpt lat="48.68912" lon="2.02046">
        <ele>110.688843</ele>
        <time>2009-11-10T12:58:05Z</time>
      </trkpt>
      <trkpt lat="48.68956" lon="2.02066">
        <ele>114.053589</ele>
        <time>2009-11-10T12:58:48Z</time>
      </trkpt>
      <trkpt lat="48.68979" lon="2.02078">
        <ele>115.495605</ele>
        <time>2009-11-10T12:59:10Z</time>
      </trkpt>
      <trkpt lat="48.69003" lon="2.02088">
        <ele>116.9375</ele>
        <time>2009-11-10T12:59:37Z</time>
      </trkpt>
      <trkpt lat="48.6902" lon="2.02095">
        <ele>117.898804</ele>
        <time>2009-11-10T12:59:55Z</time>
      </trkpt>
      <trkpt lat="48.69042" lon="2.02113">
        <ele>119.34082</ele>
        <time>2009-11-10T13:00:19Z</time>
      </trkpt>
      <trkpt lat="48.69056" lon="2.02124">
        <ele>120.782837</ele>
        <time>2009-11-10T13:00:40Z</time>
      </trkpt>
      <trkpt lat="48.69068" lon="2.02134">
        <ele>121.744141</ele>
        <time>2009-11-10T13:00:54Z</time>
      </trkpt>
      <trkpt lat="48.69088" lon="2.02153">
        <ele>125.108765</ele>
        <time>2009-11-10T13:01:22Z</time>
      </trkpt>
      <trkpt lat="48.69107" lon="2.02181">
        <ele>125.589355</ele>
        <time>2009-11-10T13:01:52Z</time>
      </trkpt>
      <trkpt lat="48.69131" lon="2.02204">
        <ele>126.069946</ele>
        <time>2009-11-10T13:02:19Z</time>
      </trkpt>
      <trkpt lat="48.6915" lon="2.02216">
        <ele>127.031372</ele>
        <time>2009-11-10T13:02:43Z</time>
      </trkpt>
      <trkpt lat="48.69172" lon="2.02234">
        <ele>127.511963</ele>
        <time>2009-11-10T13:03:10Z</time>
      </trkpt>
      <trkpt lat="48.69221" lon="2.02265">
        <ele>127.992554</ele>
        <time>2009-11-10T13:03:59Z</time>
      </trkpt>
      <trkpt lat="48.6924" lon="2.02287">
        <ele>127.992554</ele>
        <time>2009-11-10T13:04:21Z</time>
      </trkpt>
      <trkpt lat="48.69251" lon="2.02302">
        <ele>127.031372</ele>
        <time>2009-11-10T13:04:33Z</time>
      </trkpt>
      <trkpt lat="48.69272" lon="2.0232">
        <ele>125.589355</ele>
        <time>2009-11-10T13:04:58Z</time>
      </trkpt>
      <trkpt lat="48.6928" lon="2.02332">
        <ele>124.628052</ele>
        <time>2009-11-10T13:05:08Z</time>
      </trkpt>
      <trkpt lat="48.69297" lon="2.02357">
        <ele>122.705444</ele>
        <time>2009-11-10T13:05:30Z</time>
      </trkpt>
      <trkpt lat="48.69313" lon="2.02379">
        <ele>120.782837</ele>
        <time>2009-11-10T13:05:52Z</time>
      </trkpt>
      <trkpt lat="48.69317" lon="2.02387">
        <ele>118.860107</ele>
        <time>2009-11-10T13:05:59Z</time>
      </trkpt>
      <trkpt lat="48.69335" lon="2.02406">
        <ele>117.418213</ele>
        <time>2009-11-10T13:06:19Z</time>
      </trkpt>
      <trkpt lat="48.69338" lon="2.0241">
        <ele>117.418213</ele>
        <time>2009-11-10T13:06:22Z</time>
      </trkpt>
      <trkpt lat="48.69347" lon="2.02439">
        <ele>115.976196</ele>
        <time>2009-11-10T13:06:40Z</time>
      </trkpt>
      <trkpt lat="48.69356" lon="2.02466">
        <ele>115.014893</ele>
        <time>2009-11-10T13:06:57Z</time>
      </trkpt>
      <trkpt lat="48.69368" lon="2.02495">
        <ele>114.053589</ele>
        <time>2009-11-10T13:07:16Z</time>
      </trkpt>
      <trkpt lat="48.69383" lon="2.02523">
        <ele>112.611572</ele>
        <time>2009-11-10T13:07:37Z</time>
      </trkpt>
      <trkpt lat="48.69396" lon="2.02547">
        <ele>111.650269</ele>
        <time>2009-11-10T13:07:56Z</time>
      </trkpt>
      <trkpt lat="48.69407" lon="2.02562">
        <ele>110.688843</ele>
        <time>2009-11-10T13:08:11Z</time>
      </trkpt>
      <trkpt lat="48.69411" lon="2.02563">
        <ele>110.688843</ele>
        <time>2009-11-10T13:08:15Z</time>
      </trkpt>
      <trkpt lat="48.69416" lon="2.02558">
        <ele>110.688843</ele>
        <time>2009-11-10T13:08:30Z</time>
      </trkpt>
      <trkpt lat="48.69424" lon="2.02552">
        <ele>110.688843</ele>
        <time>2009-11-10T13:08:47Z</time>
      </trkpt>
      <trkpt lat="48.69444" lon="2.02535">
        <ele>109.727661</ele>
        <time>2009-11-10T13:09:07Z</time>
      </trkpt>
      <trkpt lat="48.69464" lon="2.02517">
        <ele>107.324341</ele>
        <time>2009-11-10T13:09:28Z</time>
      </trkpt>
      <trkpt lat="48.69477" lon="2.02491">
        <ele>104.44043</ele>
        <time>2009-11-10T13:09:49Z</time>
      </trkpt>
      <trkpt lat="48.69481" lon="2.02479">
        <ele>102.5177</ele>
        <time>2009-11-10T13:09:57Z</time>
      </trkpt>
      <trkpt lat="48.69484" lon="2.02471">
        <ele>102.5177</ele>
        <time>2009-11-10T13:10:02Z</time>
      </trkpt>
      <trkpt lat="48.69494" lon="2.02446">
        <ele>102.037109</ele>
        <time>2009-11-10T13:10:19Z</time>
      </trkpt>
      <trkpt lat="48.69499" lon="2.02433">
        <ele>100.595093</ele>
        <time>2009-11-10T13:10:29Z</time>
      </trkpt>
      <trkpt lat="48.69507" lon="2.02408">
        <ele>98.191895</ele>
        <time>2009-11-10T13:10:45Z</time>
      </trkpt>
      <trkpt lat="48.6952" lon="2.02375">
        <ele>97.711182</ele>
        <time>2009-11-10T13:11:08Z</time>
      </trkpt>
      <trkpt lat="48.69535" lon="2.02344">
        <ele>95.307739</ele>
        <time>2009-11-10T13:11:31Z</time>
      </trkpt>
      <trkpt lat="48.6955" lon="2.02315">
        <ele>93.385132</ele>
        <time>2009-11-10T13:11:52Z</time>
      </trkpt>
      <trkpt lat="48.69561" lon="2.02276">
        <ele>92.904541</ele>
        <time>2009-11-10T13:12:15Z</time>
      </trkpt>
      <trkpt lat="48.6957" lon="2.02235">
        <ele>93.385132</ele>
        <time>2009-11-10T13:12:41Z</time>
      </trkpt>
      <trkpt lat="48.69572" lon="2.02223">
        <ele>93.385132</ele>
        <time>2009-11-10T13:12:59Z</time>
      </trkpt>
      <trkpt lat="48.69582" lon="2.02187">
        <ele>93.385132</ele>
        <time>2009-11-10T13:13:21Z</time>
      </trkpt>
      <trkpt lat="48.69595" lon="2.02154">
        <ele>93.865845</ele>
        <time>2009-11-10T13:13:42Z</time>
      </trkpt>
      <trkpt lat="48.6961" lon="2.02127">
        <ele>94.827148</ele>
        <time>2009-11-10T13:14:02Z</time>
      </trkpt>
      <trkpt lat="48.69625" lon="2.02101">
        <ele>97.711182</ele>
        <time>2009-11-10T13:14:23Z</time>
      </trkpt>
      <trkpt lat="48.69632" lon="2.02091">
        <ele>98.191895</ele>
        <time>2009-11-10T13:14:40Z</time>
      </trkpt>
      <trkpt lat="48.6964" lon="2.02082">
        <ele>99.633789</ele>
        <time>2009-11-10T13:14:51Z</time>
      </trkpt>
      <trkpt lat="48.69657" lon="2.02073">
        <ele>101.556396</ele>
        <time>2009-11-10T13:15:12Z</time>
      </trkpt>
      <trkpt lat="48.69695" lon="2.02047">
        <ele>103.479004</ele>
        <time>2009-11-10T13:15:59Z</time>
      </trkpt>
      <trkpt lat="48.69718" lon="2.02033">
        <ele>104.44043</ele>
        <time>2009-11-10T13:16:21Z</time>
      </trkpt>
      <trkpt lat="48.69744" lon="2.02026">
        <ele>104.44043</ele>
        <time>2009-11-10T13:16:42Z</time>
      </trkpt>
      <trkpt lat="48.69766" lon="2.02016">
        <ele>103.959717</ele>
        <time>2009-11-10T13:17:03Z</time>
      </trkpt>
      <trkpt lat="48.69782" lon="2.02003">
        <ele>102.998291</ele>
        <time>2009-11-10T13:17:20Z</time>
      </trkpt>
      <trkpt lat="48.69801" lon="2.01987">
        <ele>102.037109</ele>
        <time>2009-11-10T13:17:40Z</time>
      </trkpt>
      <trkpt lat="48.69809" lon="2.01977">
        <ele>102.037109</ele>
        <time>2009-11-10T13:17:58Z</time>
      </trkpt>
      <trkpt lat="48.69815" lon="2.01968">
        <ele>102.037109</ele>
        <time>2009-11-10T13:18:07Z</time>
      </trkpt>
      <trkpt lat="48.69829" lon="2.01947">
        <ele>101.556396</ele>
        <time>2009-11-10T13:18:25Z</time>
      </trkpt>
      <trkpt lat="48.69844" lon="2.01916">
        <ele>101.075684</ele>
        <time>2009-11-10T13:18:49Z</time>
      </trkpt>
      <trkpt lat="48.69845" lon="2.01912">
        <ele>101.075684</ele>
        <time>2009-11-10T13:18:52Z</time>
      </trkpt>
      <trkpt lat="48.69847" lon="2.01903">
        <ele>100.595093</ele>
        <time>2009-11-10T13:18:58Z</time>
      </trkpt>
      <trkpt lat="48.69857" lon="2.0188">
        <ele>100.595093</ele>
        <time>2009-11-10T13:19:14Z</time>
      </trkpt>
      <trkpt lat="48.69871" lon="2.01844">
        <ele>99.633789</ele>
        <time>2009-11-10T13:19:37Z</time>
      </trkpt>
      <trkpt lat="48.69883" lon="2.01823">
        <ele>99.633789</ele>
        <time>2009-11-10T13:19:56Z</time>
      </trkpt>
      <trkpt lat="48.69898" lon="2.01786">
        <ele>99.153076</ele>
        <time>2009-11-10T13:20:22Z</time>
      </trkpt>
      <trkpt lat="48.69904" lon="2.01772">
        <ele>98.191895</ele>
        <time>2009-11-10T13:20:32Z</time>
      </trkpt>
      <trkpt lat="48.69917" lon="2.01742">
        <ele>98.191895</ele>
        <time>2009-11-10T13:20:53Z</time>
      </trkpt>
      <trkpt lat="48.6993" lon="2.01711">
        <ele>96.749878</ele>
        <time>2009-11-10T13:21:14Z</time>
      </trkpt>
      <trkpt lat="48.69937" lon="2.01697">
        <ele>96.269287</ele>
        <time>2009-11-10T13:21:33Z</time>
      </trkpt>
      <trkpt lat="48.69936" lon="2.01698">
        <ele>96.269287</ele>
        <time>2009-11-10T13:21:48Z</time>
      </trkpt>
      <trkpt lat="48.69944" lon="2.01679">
        <ele>95.788452</ele>
        <time>2009-11-10T13:22:05Z</time>
      </trkpt>
      <trkpt lat="48.69958" lon="2.01643">
        <ele>94.346558</ele>
        <time>2009-11-10T13:22:29Z</time>
      </trkpt>
      <trkpt lat="48.6997" lon="2.0163">
        <ele>93.385132</ele>
        <time>2009-11-10T13:22:42Z</time>
      </trkpt>
      <trkpt lat="48.69995" lon="2.01619">
        <ele>93.385132</ele>
        <time>2009-11-10T13:23:04Z</time>
      </trkpt>
      <trkpt lat="48.70013" lon="2.01593">
        <ele>92.42395</ele>
        <time>2009-11-10T13:23:24Z</time>
      </trkpt>
      <trkpt lat="48.70019" lon="2.01553">
        <ele>91.943237</ele>
        <time>2009-11-10T13:23:47Z</time>
      </trkpt>
      <trkpt lat="48.70021" lon="2.01512">
        <ele>89.059326</ele>
        <time>2009-11-10T13:24:10Z</time>
      </trkpt>
      <trkpt lat="48.70022" lon="2.01468">
        <ele>88.098022</ele>
        <time>2009-11-10T13:24:34Z</time>
      </trkpt>
      <trkpt lat="48.70036" lon="2.01435">
        <ele>87.136597</ele>
        <time>2009-11-10T13:24:56Z</time>
      </trkpt>
      <trkpt lat="48.70057" lon="2.01406">
        <ele>86.656006</ele>
        <time>2009-11-10T13:25:19Z</time>
      </trkpt>
      <trkpt lat="48.70081" lon="2.01374">
        <ele>85.213989</ele>
        <time>2009-11-10T13:25:44Z</time>
      </trkpt>
      <trkpt lat="48.701" lon="2.01344">
        <ele>84.733398</ele>
        <time>2009-11-10T13:26:07Z</time>
      </trkpt>
      <trkpt lat="48.70123" lon="2.01309">
        <ele>83.771973</ele>
        <time>2009-11-10T13:26:32Z</time>
      </trkpt>
      <trkpt lat="48.70144" lon="2.01288">
        <ele>84.252686</ele>
        <time>2009-11-10T13:26:54Z</time>
      </trkpt>
      <trkpt lat="48.70156" lon="2.01289">
        <ele>83.771973</ele>
        <time>2009-11-10T13:27:11Z</time>
      </trkpt>
      <trkpt lat="48.7017" lon="2.01293">
        <ele>84.252686</ele>
        <time>2009-11-10T13:27:25Z</time>
      </trkpt>
      <trkpt lat="48.70191" lon="2.01304">
        <ele>83.771973</ele>
        <time>2009-11-10T13:27:45Z</time>
      </trkpt>
      <trkpt lat="48.70216" lon="2.01315">
        <ele>84.252686</ele>
        <time>2009-11-10T13:28:08Z</time>
      </trkpt>
      <trkpt lat="48.70233" lon="2.01319">
        <ele>85.213989</ele>
        <time>2009-11-10T13:28:28Z</time>
      </trkpt>
      <trkpt lat="48.70253" lon="2.01329">
        <ele>85.69458</ele>
        <time>2009-11-10T13:28:45Z</time>
      </trkpt>
      <trkpt lat="48.70274" lon="2.01337">
        <ele>87.136597</ele>
        <time>2009-11-10T13:29:02Z</time>
      </trkpt>
      <trkpt lat="48.70294" lon="2.01353">
        <ele>89.539917</ele>
        <time>2009-11-10T13:29:19Z</time>
      </trkpt>
      <trkpt lat="48.70315" lon="2.01369">
        <ele>90.501343</ele>
        <time>2009-11-10T13:29:37Z</time>
      </trkpt>
      <trkpt lat="48.70332" lon="2.01395">
        <ele>93.385132</ele>
        <time>2009-11-10T13:29:57Z</time>
      </trkpt>
      <trkpt lat="48.70344" lon="2.01415">
        <ele>94.827148</ele>
        <time>2009-11-10T13:30:14Z</time>
      </trkpt>
      <trkpt lat="48.70344" lon="2.01422">
        <ele>94.827148</ele>
        <time>2009-11-10T13:30:18Z</time>
      </trkpt>
      <trkpt lat="48.70345" lon="2.01459">
        <ele>94.827148</ele>
        <time>2009-11-10T13:30:40Z</time>
      </trkpt>
      <trkpt lat="48.70345" lon="2.01473">
        <ele>94.827148</ele>
        <time>2009-11-10T13:30:49Z</time>
      </trkpt>
      <trkpt lat="48.70345" lon="2.01507">
        <ele>94.346558</ele>
        <time>2009-11-10T13:31:08Z</time>
      </trkpt>
      <trkpt lat="48.70346" lon="2.01547">
        <ele>93.865845</ele>
        <time>2009-11-10T13:31:30Z</time>
      </trkpt>
      <trkpt lat="48.70349" lon="2.0158">
        <ele>93.865845</ele>
        <time>2009-11-10T13:31:47Z</time>
      </trkpt>
      <trkpt lat="48.70349" lon="2.01606">
        <ele>93.865845</ele>
        <time>2009-11-10T13:32:05Z</time>
      </trkpt>
      <trkpt lat="48.70349" lon="2.01633">
        <ele>94.346558</ele>
        <time>2009-11-10T13:32:21Z</time>
      </trkpt>
      <trkpt lat="48.7035" lon="2.01671">
        <ele>94.827148</ele>
        <time>2009-11-10T13:32:42Z</time>
      </trkpt>
      <trkpt lat="48.70352" lon="2.01684">
        <ele>94.827148</ele>
        <time>2009-11-10T13:32:57Z</time>
      </trkpt>
      <trkpt lat="48.70351" lon="2.01699">
        <ele>94.346558</ele>
        <time>2009-11-10T13:33:15Z</time>
      </trkpt>
      <trkpt lat="48.70358" lon="2.01709">
        <ele>94.827148</ele>
        <time>2009-11-10T13:33:32Z</time>
      </trkpt>
      <trkpt lat="48.70353" lon="2.01708">
        <ele>95.307739</ele>
        <time>2009-11-10T13:33:59Z</time>
      </trkpt>
      <trkpt lat="48.70345" lon="2.01706">
        <ele>94.827148</ele>
        <time>2009-11-10T13:34:12Z</time>
      </trkpt>
      <trkpt lat="48.70352" lon="2.01704">
        <ele>95.788452</ele>
        <time>2009-11-10T13:34:54Z</time>
      </trkpt>
      <trkpt lat="48.70352" lon="2.01708">
        <ele>95.788452</ele>
        <time>2009-11-10T13:35:14Z</time>
      </trkpt>
      <trkpt lat="48.70363" lon="2.0174">
        <ele>96.269287</ele>
        <time>2009-11-10T13:35:35Z</time>
      </trkpt>
      <trkpt lat="48.70373" lon="2.01779">
        <ele>98.191895</ele>
        <time>2009-11-10T13:35:58Z</time>
      </trkpt>
      <trkpt lat="48.70382" lon="2.01806">
        <ele>99.153076</ele>
        <time>2009-11-10T13:36:17Z</time>
      </trkpt>
      <trkpt lat="48.70393" lon="2.01824">
        <ele>99.153076</ele>
        <time>2009-11-10T13:36:29Z</time>
      </trkpt>
      <trkpt lat="48.70392" lon="2.01828">
        <ele>99.633789</ele>
        <time>2009-11-10T13:36:31Z</time>
      </trkpt>
      <trkpt lat="48.70388" lon="2.0186">
        <ele>100.114502</ele>
        <time>2009-11-10T13:36:53Z</time>
      </trkpt>
      <trkpt lat="48.70383" lon="2.0187">
        <ele>100.595093</ele>
        <time>2009-11-10T13:37:25Z</time>
      </trkpt>
      <trkpt lat="48.70386" lon="2.01892">
        <ele>101.556396</ele>
        <time>2009-11-10T13:37:46Z</time>
      </trkpt>
      <trkpt lat="48.70389" lon="2.01915">
        <ele>102.998291</ele>
        <time>2009-11-10T13:38:03Z</time>
      </trkpt>
      <trkpt lat="48.70389" lon="2.01943">
        <ele>104.921021</ele>
        <time>2009-11-10T13:38:24Z</time>
      </trkpt>
      <trkpt lat="48.70389" lon="2.01981">
        <ele>106.363037</ele>
        <time>2009-11-10T13:38:44Z</time>
      </trkpt>
      <trkpt lat="48.7039" lon="2.01981">
        <ele>106.843628</ele>
        <time>2009-11-10T13:38:48Z</time>
      </trkpt>
      <trkpt lat="48.704" lon="2.01969">
        <ele>109.727661</ele>
        <time>2009-11-10T13:39:04Z</time>
      </trkpt>
      <trkpt lat="48.70413" lon="2.01949">
        <ele>113.092285</ele>
        <time>2009-11-10T13:39:25Z</time>
      </trkpt>
      <trkpt lat="48.70432" lon="2.01929">
        <ele>115.495605</ele>
        <time>2009-11-10T13:39:46Z</time>
      </trkpt>
      <trkpt lat="48.70442" lon="2.01911">
        <ele>119.34082</ele>
        <time>2009-11-10T13:40:08Z</time>
      </trkpt>
      <trkpt lat="48.70442" lon="2.01869">
        <ele>123.666748</ele>
        <time>2009-11-10T13:40:33Z</time>
      </trkpt>
      <trkpt lat="48.70441" lon="2.01868">
        <ele>123.666748</ele>
        <time>2009-11-10T13:40:34Z</time>
      </trkpt>
      <trkpt lat="48.70442" lon="2.01839">
        <ele>126.550659</ele>
        <time>2009-11-10T13:40:55Z</time>
      </trkpt>
      <trkpt lat="48.70447" lon="2.01824">
        <ele>127.992554</ele>
        <time>2009-11-10T13:41:08Z</time>
      </trkpt>
      <trkpt lat="48.70469" lon="2.01784">
        <ele>129.915283</ele>
        <time>2009-11-10T13:41:36Z</time>
      </trkpt>
      <trkpt lat="48.70476" lon="2.01776">
        <ele>130.395996</ele>
        <time>2009-11-10T13:41:50Z</time>
      </trkpt>
      <trkpt lat="48.70491" lon="2.01753">
        <ele>133.279907</ele>
        <time>2009-11-10T13:42:08Z</time>
      </trkpt>
      <trkpt lat="48.70506" lon="2.01727">
        <ele>136.644653</ele>
        <time>2009-11-10T13:42:28Z</time>
      </trkpt>
      <trkpt lat="48.70526" lon="2.01708">
        <ele>139.528442</ele>
        <time>2009-11-10T13:42:49Z</time>
      </trkpt>
      <trkpt lat="48.70526" lon="2.01707">
        <ele>140.009155</ele>
        <time>2009-11-10T13:42:50Z</time>
      </trkpt>
      <trkpt lat="48.70528" lon="2.01673">
        <ele>143.373657</ele>
        <time>2009-11-10T13:43:10Z</time>
      </trkpt>
      <trkpt lat="48.70534" lon="2.01636">
        <ele>145.296387</ele>
        <time>2009-11-10T13:43:33Z</time>
      </trkpt>
      <trkpt lat="48.70543" lon="2.01605">
        <ele>147.699707</ele>
        <time>2009-11-10T13:43:51Z</time>
      </trkpt>
      <trkpt lat="48.70553" lon="2.01578">
        <ele>151.064209</ele>
        <time>2009-11-10T13:44:08Z</time>
      </trkpt>
      <trkpt lat="48.70564" lon="2.01551">
        <ele>152.506348</ele>
        <time>2009-11-10T13:44:27Z</time>
      </trkpt>
      <trkpt lat="48.70574" lon="2.01539">
        <ele>155.390259</ele>
        <time>2009-11-10T13:44:42Z</time>
      </trkpt>
      <trkpt lat="48.70578" lon="2.01541">
        <ele>155.870972</ele>
        <time>2009-11-10T13:44:46Z</time>
      </trkpt>
      <trkpt lat="48.70587" lon="2.01564">
        <ele>158.754761</ele>
        <time>2009-11-10T13:45:07Z</time>
      </trkpt>
      <trkpt lat="48.70583" lon="2.0159">
        <ele>161.158203</ele>
        <time>2009-11-10T13:45:26Z</time>
      </trkpt>
      <trkpt lat="48.70582" lon="2.01601">
        <ele>161.158203</ele>
        <time>2009-11-10T13:45:33Z</time>
      </trkpt>
      <trkpt lat="48.70585" lon="2.01635">
        <ele>164.522705</ele>
        <time>2009-11-10T13:45:57Z</time>
      </trkpt>
      <trkpt lat="48.70587" lon="2.01647">
        <ele>165.484131</ele>
        <time>2009-11-10T13:46:05Z</time>
      </trkpt>
      <trkpt lat="48.70592" lon="2.01658">
        <ele>165.964722</ele>
        <time>2009-11-10T13:46:12Z</time>
      </trkpt>
      <trkpt lat="48.70585" lon="2.01656">
        <ele>165.964722</ele>
        <time>2009-11-10T13:46:14Z</time>
      </trkpt>
      <trkpt lat="48.70589" lon="2.01668">
        <ele>167.406738</ele>
        <time>2009-11-10T13:46:26Z</time>
      </trkpt>
      <trkpt lat="48.70598" lon="2.01681">
        <ele>166.926025</ele>
        <time>2009-11-10T13:46:42Z</time>
      </trkpt>
      <trkpt lat="48.70593" lon="2.017">
        <ele>166.445313</ele>
        <time>2009-11-10T13:47:08Z</time>
      </trkpt>
      <trkpt lat="48.70588" lon="2.01716">
        <ele>165.964722</ele>
        <time>2009-11-10T13:49:41Z</time>
      </trkpt>
      <trkpt lat="48.70592" lon="2.01702">
        <ele>163.080811</ele>
        <time>2009-11-10T13:52:28Z</time>
      </trkpt>
      <trkpt lat="48.70599" lon="2.01715">
        <ele>164.522705</ele>
        <time>2009-11-10T13:54:03Z</time>
      </trkpt>
      <trkpt lat="48.70618" lon="2.01717">
        <ele>164.522705</ele>
        <time>2009-11-10T13:54:23Z</time>
      </trkpt>
      <trkpt lat="48.70634" lon="2.01715">
        <ele>165.964722</ele>
        <time>2009-11-10T13:54:42Z</time>
      </trkpt>
      <trkpt lat="48.70657" lon="2.01724">
        <ele>165.964722</ele>
        <time>2009-11-10T13:55:01Z</time>
      </trkpt>
      <trkpt lat="48.70677" lon="2.01728">
        <ele>165.484131</ele>
        <time>2009-11-10T13:55:19Z</time>
      </trkpt>
      <trkpt lat="48.707" lon="2.01739">
        <ele>165.964722</ele>
        <time>2009-11-10T13:55:38Z</time>
      </trkpt>
      <trkpt lat="48.7072" lon="2.01742">
        <ele>165.484131</ele>
        <time>2009-11-10T13:55:57Z</time>
      </trkpt>
      <trkpt lat="48.70735" lon="2.01754">
        <ele>165.964722</ele>
        <time>2009-11-10T13:56:10Z</time>
      </trkpt>
      <trkpt lat="48.70734" lon="2.01787">
        <ele>165.484131</ele>
        <time>2009-11-10T13:56:25Z</time>
      </trkpt>
      <trkpt lat="48.70732" lon="2.01799">
        <ele>165.964722</ele>
        <time>2009-11-10T13:56:30Z</time>
      </trkpt>
      <trkpt lat="48.7073" lon="2.01845">
        <ele>165.003418</ele>
        <time>2009-11-10T13:56:53Z</time>
      </trkpt>
      <trkpt lat="48.7073" lon="2.01854">
        <ele>165.003418</ele>
        <time>2009-11-10T13:56:57Z</time>
      </trkpt>
      <trkpt lat="48.70721" lon="2.01888">
        <ele>165.003418</ele>
        <time>2009-11-10T13:57:16Z</time>
      </trkpt>
      <trkpt lat="48.70712" lon="2.01928">
        <ele>164.522705</ele>
        <time>2009-11-10T13:57:37Z</time>
      </trkpt>
      <trkpt lat="48.70711" lon="2.01967">
        <ele>165.003418</ele>
        <time>2009-11-10T13:57:58Z</time>
      </trkpt>
      <trkpt lat="48.70716" lon="2.01987">
        <ele>164.042114</ele>
        <time>2009-11-10T13:58:09Z</time>
      </trkpt>
      <trkpt lat="48.70712" lon="2.02028">
        <ele>164.042114</ele>
        <time>2009-11-10T13:58:35Z</time>
      </trkpt>
      <trkpt lat="48.70709" lon="2.0205">
        <ele>163.561523</ele>
        <time>2009-11-10T13:58:50Z</time>
      </trkpt>
      <trkpt lat="48.70725" lon="2.02122">
        <ele>162.119507</ele>
        <time>2009-11-10T13:59:36Z</time>
      </trkpt>
      <trkpt lat="48.7073" lon="2.02138">
        <ele>162.600098</ele>
        <time>2009-11-10T13:59:45Z</time>
      </trkpt>
      <trkpt lat="48.70727" lon="2.02165">
        <ele>162.600098</ele>
        <time>2009-11-10T14:00:01Z</time>
      </trkpt>
      <trkpt lat="48.70718" lon="2.02237">
        <ele>162.600098</ele>
        <time>2009-11-10T14:00:24Z</time>
      </trkpt>
      <trkpt lat="48.70716" lon="2.02243">
        <ele>162.119507</ele>
        <time>2009-11-10T14:00:29Z</time>
      </trkpt>
      <trkpt lat="48.70708" lon="2.02271">
        <ele>162.119507</ele>
        <time>2009-11-10T14:00:47Z</time>
      </trkpt>
      <trkpt lat="48.70702" lon="2.02314">
        <ele>162.119507</ele>
        <time>2009-11-10T14:01:09Z</time>
      </trkpt>
      <trkpt lat="48.707" lon="2.02347">
        <ele>162.119507</ele>
        <time>2009-11-10T14:01:27Z</time>
      </trkpt>
      <trkpt lat="48.70697" lon="2.0236">
        <ele>161.158203</ele>
        <time>2009-11-10T14:01:35Z</time>
      </trkpt>
      <trkpt lat="48.70697" lon="2.02381">
        <ele>161.158203</ele>
        <time>2009-11-10T14:01:46Z</time>
      </trkpt>
      <trkpt lat="48.70701" lon="2.02411">
        <ele>161.158203</ele>
        <time>2009-11-10T14:02:03Z</time>
      </trkpt>
      <trkpt lat="48.70701" lon="2.0244">
        <ele>161.158203</ele>
        <time>2009-11-10T14:02:22Z</time>
      </trkpt>
      <trkpt lat="48.70716" lon="2.02507">
        <ele>159.235474</ele>
        <time>2009-11-10T14:03:04Z</time>
      </trkpt>
      <trkpt lat="48.70717" lon="2.02527">
        <ele>158.754761</ele>
        <time>2009-11-10T14:03:22Z</time>
      </trkpt>
      <trkpt lat="48.70731" lon="2.02581">
        <ele>155.870972</ele>
        <time>2009-11-10T14:04:00Z</time>
      </trkpt>
      <trkpt lat="48.7073" lon="2.02655">
        <ele>151.544922</ele>
        <time>2009-11-10T14:05:44Z</time>
      </trkpt>
      <trkpt lat="48.70733" lon="2.02667">
        <ele>149.622314</ele>
        <time>2009-11-10T14:05:51Z</time>
      </trkpt>
      <trkpt lat="48.70733" lon="2.02686">
        <ele>148.661011</ele>
        <time>2009-11-10T14:06:07Z</time>
      </trkpt>
      <trkpt lat="48.70733" lon="2.02702">
        <ele>145.296387</ele>
        <time>2009-11-10T14:06:18Z</time>
      </trkpt>
      <trkpt lat="48.70734" lon="2.02718">
        <ele>142.412476</ele>
        <time>2009-11-10T14:06:29Z</time>
      </trkpt>
      <trkpt lat="48.70735" lon="2.02721">
        <ele>142.412476</ele>
        <time>2009-11-10T14:06:31Z</time>
      </trkpt>
      <trkpt lat="48.70735" lon="2.0274">
        <ele>138.567261</ele>
        <time>2009-11-10T14:06:50Z</time>
      </trkpt>
      <trkpt lat="48.70756" lon="2.02778">
        <ele>134.721924</ele>
        <time>2009-11-10T14:07:13Z</time>
      </trkpt>
      <trkpt lat="48.70765" lon="2.028">
        <ele>134.241211</ele>
        <time>2009-11-10T14:07:35Z</time>
      </trkpt>
      <trkpt lat="48.70767" lon="2.02815">
        <ele>132.318604</ele>
        <time>2009-11-10T14:07:49Z</time>
      </trkpt>
      <trkpt lat="48.70769" lon="2.02838">
        <ele>129.434692</ele>
        <time>2009-11-10T14:08:04Z</time>
      </trkpt>
      <trkpt lat="48.70777" lon="2.02861">
        <ele>126.550659</ele>
        <time>2009-11-10T14:08:18Z</time>
      </trkpt>
      <trkpt lat="48.70785" lon="2.02881">
        <ele>123.666748</ele>
        <time>2009-11-10T14:08:31Z</time>
      </trkpt>
      <trkpt lat="48.70786" lon="2.02891">
        <ele>121.744141</ele>
        <time>2009-11-10T14:08:36Z</time>
      </trkpt>
      <trkpt lat="48.70798" lon="2.02922">
        <ele>119.34082</ele>
        <time>2009-11-10T14:08:53Z</time>
      </trkpt>
      <trkpt lat="48.70798" lon="2.02924">
        <ele>119.34082</ele>
        <time>2009-11-10T14:08:54Z</time>
      </trkpt>
      <trkpt lat="48.70805" lon="2.02969">
        <ele>116.456787</ele>
        <time>2009-11-10T14:09:14Z</time>
      </trkpt>
      <trkpt lat="48.70805" lon="2.02977">
        <ele>115.014893</ele>
        <time>2009-11-10T14:09:18Z</time>
      </trkpt>
      <trkpt lat="48.70806" lon="2.02985">
        <ele>114.53418</ele>
        <time>2009-11-10T14:09:22Z</time>
      </trkpt>
      <trkpt lat="48.70799" lon="2.03012">
        <ele>113.092285</ele>
        <time>2009-11-10T14:09:36Z</time>
      </trkpt>
      <trkpt lat="48.70793" lon="2.03045">
        <ele>111.169556</ele>
        <time>2009-11-10T14:09:54Z</time>
      </trkpt>
      <trkpt lat="48.70783" lon="2.0307">
        <ele>109.246948</ele>
        <time>2009-11-10T14:10:09Z</time>
      </trkpt>
      <trkpt lat="48.70777" lon="2.03081">
        <ele>107.805054</ele>
        <time>2009-11-10T14:10:16Z</time>
      </trkpt>
      <trkpt lat="48.70758" lon="2.0311">
        <ele>106.843628</ele>
        <time>2009-11-10T14:10:36Z</time>
      </trkpt>
      <trkpt lat="48.70752" lon="2.03118">
        <ele>107.805054</ele>
        <time>2009-11-10T14:10:53Z</time>
      </trkpt>
      <trkpt lat="48.70753" lon="2.03124">
        <ele>107.805054</ele>
        <time>2009-11-10T14:10:59Z</time>
      </trkpt>
      <trkpt lat="48.70762" lon="2.03149">
        <ele>108.285645</ele>
        <time>2009-11-10T14:11:18Z</time>
      </trkpt>
      <trkpt lat="48.70771" lon="2.03174">
        <ele>106.363037</ele>
        <time>2009-11-10T14:11:41Z</time>
      </trkpt>
      <trkpt lat="48.70787" lon="2.03202">
        <ele>104.921021</ele>
        <time>2009-11-10T14:11:59Z</time>
      </trkpt>
      <trkpt lat="48.70801" lon="2.03229">
        <ele>102.5177</ele>
        <time>2009-11-10T14:12:17Z</time>
      </trkpt>
      <trkpt lat="48.7082" lon="2.03267">
        <ele>100.595093</ele>
        <time>2009-11-10T14:12:43Z</time>
      </trkpt>
      <trkpt lat="48.70826" lon="2.03272">
        <ele>100.595093</ele>
        <time>2009-11-10T14:12:57Z</time>
      </trkpt>
      <trkpt lat="48.70826" lon="2.03275">
        <ele>100.595093</ele>
        <time>2009-11-10T14:13:10Z</time>
      </trkpt>
      <trkpt lat="48.70824" lon="2.03276">
        <ele>100.114502</ele>
        <time>2009-11-10T14:13:39Z</time>
      </trkpt>
      <trkpt lat="48.70824" lon="2.03277">
        <ele>100.114502</ele>
        <time>2009-11-10T14:13:57Z</time>
      </trkpt>
      <trkpt lat="48.70825" lon="2.03276">
        <ele>100.114502</ele>
        <time>2009-11-10T14:14:50Z</time>
      </trkpt>
      <trkpt lat="48.70823" lon="2.03272">
        <ele>100.114502</ele>
        <time>2009-11-10T14:15:11Z</time>
      </trkpt>
      <trkpt lat="48.70823" lon="2.03273">
        <ele>100.114502</ele>
        <time>2009-11-10T14:15:41Z</time>
      </trkpt>
      <trkpt lat="48.70824" lon="2.03274">
        <ele>99.633789</ele>
        <time>2009-11-10T14:16:12Z</time>
      </trkpt>
      <trkpt lat="48.70832" lon="2.03269">
        <ele>100.114502</ele>
        <time>2009-11-10T14:16:19Z</time>
      </trkpt>
      <trkpt lat="48.70854" lon="2.0325">
        <ele>102.037109</ele>
        <time>2009-11-10T14:16:40Z</time>
      </trkpt>
      <trkpt lat="48.70876" lon="2.0323">
        <ele>102.998291</ele>
        <time>2009-11-10T14:17:02Z</time>
      </trkpt>
      <trkpt lat="48.70888" lon="2.03217">
        <ele>103.959717</ele>
        <time>2009-11-10T14:17:18Z</time>
      </trkpt>
      <trkpt lat="48.70908" lon="2.03188">
        <ele>104.44043</ele>
        <time>2009-11-10T14:17:41Z</time>
      </trkpt>
      <trkpt lat="48.70927" lon="2.03162">
        <ele>105.401733</ele>
        <time>2009-11-10T14:18:03Z</time>
      </trkpt>
      <trkpt lat="48.70945" lon="2.03139">
        <ele>106.363037</ele>
        <time>2009-11-10T14:18:26Z</time>
      </trkpt>
      <trkpt lat="48.70957" lon="2.03112">
        <ele>108.285645</ele>
        <time>2009-11-10T14:18:46Z</time>
      </trkpt>
      <trkpt lat="48.70965" lon="2.03103">
        <ele>109.246948</ele>
        <time>2009-11-10T14:19:02Z</time>
      </trkpt>
      <trkpt lat="48.70966" lon="2.03105">
        <ele>108.766235</ele>
        <time>2009-11-10T14:19:05Z</time>
      </trkpt>
      <trkpt lat="48.7098" lon="2.03118">
        <ele>107.805054</ele>
        <time>2009-11-10T14:19:21Z</time>
      </trkpt>
      <trkpt lat="48.70988" lon="2.03127">
        <ele>104.921021</ele>
        <time>2009-11-10T14:19:35Z</time>
      </trkpt>
      <trkpt lat="48.71003" lon="2.03142">
        <ele>102.5177</ele>
        <time>2009-11-10T14:19:54Z</time>
      </trkpt>
      <trkpt lat="48.7103" lon="2.03174">
        <ele>99.153076</ele>
        <time>2009-11-10T14:20:32Z</time>
      </trkpt>
      <trkpt lat="48.71023" lon="2.03209">
        <ele>97.230469</ele>
        <time>2009-11-10T14:20:55Z</time>
      </trkpt>
      <trkpt lat="48.71041" lon="2.03238">
        <ele>96.749878</ele>
        <time>2009-11-10T14:21:20Z</time>
      </trkpt>
      <trkpt lat="48.71064" lon="2.03266">
        <ele>96.749878</ele>
        <time>2009-11-10T14:21:43Z</time>
      </trkpt>
      <trkpt lat="48.71088" lon="2.03293">
        <ele>97.230469</ele>
        <time>2009-11-10T14:22:10Z</time>
      </trkpt>
      <trkpt lat="48.71104" lon="2.03313">
        <ele>97.711182</ele>
        <time>2009-11-10T14:22:37Z</time>
      </trkpt>
      <trkpt lat="48.71131" lon="2.03346">
        <ele>99.633789</ele>
        <time>2009-11-10T14:23:04Z</time>
      </trkpt>
      <trkpt lat="48.71164" lon="2.03369">
        <ele>100.595093</ele>
        <time>2009-11-10T14:23:27Z</time>
      </trkpt>
      <trkpt lat="48.71167" lon="2.03368">
        <ele>100.595093</ele>
        <time>2009-11-10T14:23:29Z</time>
      </trkpt>
      <trkpt lat="48.71182" lon="2.03379">
        <ele>101.075684</ele>
        <time>2009-11-10T14:23:42Z</time>
      </trkpt>
      <trkpt lat="48.71186" lon="2.03384">
        <ele>100.595093</ele>
        <time>2009-11-10T14:23:57Z</time>
      </trkpt>
      <trkpt lat="48.71204" lon="2.03383">
        <ele>101.556396</ele>
        <time>2009-11-10T14:24:11Z</time>
      </trkpt>
      <trkpt lat="48.71231" lon="2.03381">
        <ele>102.5177</ele>
        <time>2009-11-10T14:24:33Z</time>
      </trkpt>
      <trkpt lat="48.71251" lon="2.03366">
        <ele>103.479004</ele>
        <time>2009-11-10T14:24:53Z</time>
      </trkpt>
      <trkpt lat="48.71261" lon="2.03347">
        <ele>106.843628</ele>
        <time>2009-11-10T14:25:08Z</time>
      </trkpt>
      <trkpt lat="48.7127" lon="2.03324">
        <ele>108.766235</ele>
        <time>2009-11-10T14:25:26Z</time>
      </trkpt>
      <trkpt lat="48.71277" lon="2.03304">
        <ele>112.611572</ele>
        <time>2009-11-10T14:25:41Z</time>
      </trkpt>
      <trkpt lat="48.71282" lon="2.03288">
        <ele>113.572998</ele>
        <time>2009-11-10T14:25:54Z</time>
      </trkpt>
      <trkpt lat="48.71306" lon="2.03291">
        <ele>118.379395</ele>
        <time>2009-11-10T14:26:26Z</time>
      </trkpt>
      <trkpt lat="48.71319" lon="2.03316">
        <ele>124.628052</ele>
        <time>2009-11-10T14:26:54Z</time>
      </trkpt>
      <trkpt lat="48.71326" lon="2.03326">
        <ele>127.992554</ele>
        <time>2009-11-10T14:27:08Z</time>
      </trkpt>
      <trkpt lat="48.71343" lon="2.03345">
        <ele>130.876709</ele>
        <time>2009-11-10T14:27:33Z</time>
      </trkpt>
      <trkpt lat="48.71353" lon="2.03358">
        <ele>134.721924</ele>
        <time>2009-11-10T14:27:47Z</time>
      </trkpt>
      <trkpt lat="48.71355" lon="2.03382">
        <ele>137.605835</ele>
        <time>2009-11-10T14:28:06Z</time>
      </trkpt>
      <trkpt lat="48.71356" lon="2.03401">
        <ele>139.528442</ele>
        <time>2009-11-10T14:28:18Z</time>
      </trkpt>
      <trkpt lat="48.71356" lon="2.03421">
        <ele>142.412476</ele>
        <time>2009-11-10T14:28:33Z</time>
      </trkpt>
      <trkpt lat="48.71349" lon="2.03443">
        <ele>145.296387</ele>
        <time>2009-11-10T14:28:49Z</time>
      </trkpt>
      <trkpt lat="48.71352" lon="2.03456">
        <ele>147.699707</ele>
        <time>2009-11-10T14:28:59Z</time>
      </trkpt>
      <trkpt lat="48.71356" lon="2.03469">
        <ele>151.064209</ele>
        <time>2009-11-10T14:29:14Z</time>
      </trkpt>
      <trkpt lat="48.7137" lon="2.0349">
        <ele>153.948364</ele>
        <time>2009-11-10T14:29:37Z</time>
      </trkpt>
      <trkpt lat="48.71371" lon="2.03492">
        <ele>154.428955</ele>
        <time>2009-11-10T14:29:38Z</time>
      </trkpt>
      <trkpt lat="48.7138" lon="2.03516">
        <ele>156.351563</ele>
        <time>2009-11-10T14:29:52Z</time>
      </trkpt>
      <trkpt lat="48.71378" lon="2.03535">
        <ele>157.793579</ele>
        <time>2009-11-10T14:30:09Z</time>
      </trkpt>
      <trkpt lat="48.71376" lon="2.03542">
        <ele>158.27417</ele>
        <time>2009-11-10T14:30:32Z</time>
      </trkpt>
      <trkpt lat="48.71379" lon="2.03566">
        <ele>159.716187</ele>
        <time>2009-11-10T14:30:49Z</time>
      </trkpt>
      <trkpt lat="48.7139" lon="2.036">
        <ele>161.638916</ele>
        <time>2009-11-10T14:31:22Z</time>
      </trkpt>
      <trkpt lat="48.71401" lon="2.0365">
        <ele>165.964722</ele>
        <time>2009-11-10T14:32:04Z</time>
      </trkpt>
      <trkpt lat="48.71397" lon="2.03673">
        <ele>165.964722</ele>
        <time>2009-11-10T14:32:26Z</time>
      </trkpt>
      <trkpt lat="48.71405" lon="2.03691">
        <ele>165.484131</ele>
        <time>2009-11-10T14:33:01Z</time>
      </trkpt>
      <trkpt lat="48.71399" lon="2.03708">
        <ele>165.484131</ele>
        <time>2009-11-10T14:33:12Z</time>
      </trkpt>
      <trkpt lat="48.71398" lon="2.03715">
        <ele>165.003418</ele>
        <time>2009-11-10T14:33:17Z</time>
      </trkpt>
      <trkpt lat="48.71385" lon="2.03732">
        <ele>165.964722</ele>
        <time>2009-11-10T14:33:32Z</time>
      </trkpt>
      <trkpt lat="48.71372" lon="2.03753">
        <ele>165.484131</ele>
        <time>2009-11-10T14:33:48Z</time>
      </trkpt>
      <trkpt lat="48.7136" lon="2.03775">
        <ele>165.003418</ele>
        <time>2009-11-10T14:34:07Z</time>
      </trkpt>
      <trkpt lat="48.71342" lon="2.03805">
        <ele>165.003418</ele>
        <time>2009-11-10T14:34:30Z</time>
      </trkpt>
      <trkpt lat="48.71325" lon="2.03832">
        <ele>164.522705</ele>
        <time>2009-11-10T14:34:52Z</time>
      </trkpt>
      <trkpt lat="48.71311" lon="2.0386">
        <ele>164.042114</ele>
        <time>2009-11-10T14:35:12Z</time>
      </trkpt>
      <trkpt lat="48.71294" lon="2.0389">
        <ele>162.600098</ele>
        <time>2009-11-10T14:35:35Z</time>
      </trkpt>
      <trkpt lat="48.71275" lon="2.03939">
        <ele>162.600098</ele>
        <time>2009-11-10T14:36:09Z</time>
      </trkpt>
      <trkpt lat="48.71273" lon="2.03941">
        <ele>162.600098</ele>
        <time>2009-11-10T14:36:11Z</time>
      </trkpt>
      <trkpt lat="48.71267" lon="2.03977">
        <ele>162.119507</ele>
        <time>2009-11-10T14:36:35Z</time>
      </trkpt>
      <trkpt lat="48.71262" lon="2.04009">
        <ele>162.119507</ele>
        <time>2009-11-10T14:36:53Z</time>
      </trkpt>
      <trkpt lat="48.71241" lon="2.04041">
        <ele>161.638916</ele>
        <time>2009-11-10T14:37:17Z</time>
      </trkpt>
      <trkpt lat="48.71226" lon="2.04061">
        <ele>161.638916</ele>
        <time>2009-11-10T14:37:37Z</time>
      </trkpt>
      <trkpt lat="48.71225" lon="2.04064">
        <ele>161.638916</ele>
        <time>2009-11-10T14:37:49Z</time>
      </trkpt>
      <trkpt lat="48.71219" lon="2.0407">
        <ele>161.638916</ele>
        <time>2009-11-10T14:37:55Z</time>
      </trkpt>
      <trkpt lat="48.71203" lon="2.04091">
        <ele>161.638916</ele>
        <time>2009-11-10T14:38:14Z</time>
      </trkpt>
      <trkpt lat="48.7119" lon="2.04106">
        <ele>161.638916</ele>
        <time>2009-11-10T14:38:31Z</time>
      </trkpt>
      <trkpt lat="48.7117" lon="2.04125">
        <ele>161.158203</ele>
        <time>2009-11-10T14:38:51Z</time>
      </trkpt>
      <trkpt lat="48.71149" lon="2.04136">
        <ele>160.196899</ele>
        <time>2009-11-10T14:39:11Z</time>
      </trkpt>
      <trkpt lat="48.71128" lon="2.0414">
        <ele>159.235474</ele>
        <time>2009-11-10T14:39:30Z</time>
      </trkpt>
      <trkpt lat="48.71109" lon="2.04142">
        <ele>158.754761</ele>
        <time>2009-11-10T14:39:48Z</time>
      </trkpt>
      <trkpt lat="48.71082" lon="2.04136">
        <ele>157.312866</ele>
        <time>2009-11-10T14:40:11Z</time>
      </trkpt>
      <trkpt lat="48.7106" lon="2.04119">
        <ele>155.870972</ele>
        <time>2009-11-10T14:40:32Z</time>
      </trkpt>
      <trkpt lat="48.71043" lon="2.04119">
        <ele>155.390259</ele>
        <time>2009-11-10T14:40:49Z</time>
      </trkpt>
      <trkpt lat="48.71026" lon="2.04135">
        <ele>154.909546</ele>
        <time>2009-11-10T14:41:06Z</time>
      </trkpt>
      <trkpt lat="48.71019" lon="2.04143">
        <ele>155.390259</ele>
        <time>2009-11-10T14:41:23Z</time>
      </trkpt>
      <trkpt lat="48.71013" lon="2.04149">
        <ele>154.428955</ele>
        <time>2009-11-10T14:41:44Z</time>
      </trkpt>
      <trkpt lat="48.71011" lon="2.04145">
        <ele>154.909546</ele>
        <time>2009-11-10T14:42:28Z</time>
      </trkpt>
      <trkpt lat="48.71011" lon="2.04145">
        <ele>154.428955</ele>
        <time>2009-11-10T14:43:11Z</time>
      </trkpt>
      <trkpt lat="48.71012" lon="2.04143">
        <ele>153.948364</ele>
        <time>2009-11-10T14:43:43Z</time>
      </trkpt>
      <trkpt lat="48.7101" lon="2.04143">
        <ele>153.948364</ele>
        <time>2009-11-10T14:44:02Z</time>
      </trkpt>
      <trkpt lat="48.71009" lon="2.04143">
        <ele>154.428955</ele>
        <time>2009-11-10T14:44:24Z</time>
      </trkpt>
      <trkpt lat="48.71012" lon="2.04143">
        <ele>153.467651</ele>
        <time>2009-11-10T14:44:49Z</time>
      </trkpt>
      <trkpt lat="48.71013" lon="2.04146">
        <ele>154.909546</ele>
        <time>2009-11-10T14:47:26Z</time>
      </trkpt>
      <trkpt lat="48.71022" lon="2.04148">
        <ele>155.870972</ele>
        <time>2009-11-10T14:50:13Z</time>
      </trkpt>
      <trkpt lat="48.71016" lon="2.04145">
        <ele>155.870972</ele>
        <time>2009-11-10T14:50:30Z</time>
      </trkpt>
      <trkpt lat="48.7102" lon="2.0415">
        <ele>158.754761</ele>
        <time>2009-11-10T14:54:02Z</time>
      </trkpt>
      <trkpt lat="48.71043" lon="2.0415">
        <ele>161.638916</ele>
        <time>2009-11-10T14:57:12Z</time>
      </trkpt>
      <trkpt lat="48.7102" lon="2.04147">
        <ele>162.600098</ele>
        <time>2009-11-10T14:58:13Z</time>
      </trkpt>
      <trkpt lat="48.71018" lon="2.04145">
        <ele>162.600098</ele>
        <time>2009-11-10T14:58:55Z</time>
      </trkpt>
      <trkpt lat="48.71015" lon="2.04156">
        <ele>163.080811</ele>
        <time>2009-11-10T14:59:36Z</time>
      </trkpt>
      <trkpt lat="48.7101" lon="2.04159">
        <ele>162.600098</ele>
        <time>2009-11-10T14:59:41Z</time>
      </trkpt>
      <trkpt lat="48.70991" lon="2.04162">
        <ele>159.716187</ele>
        <time>2009-11-10T14:59:59Z</time>
      </trkpt>
      <trkpt lat="48.70977" lon="2.04167">
        <ele>156.351563</ele>
        <time>2009-11-10T15:00:15Z</time>
      </trkpt>
      <trkpt lat="48.7097" lon="2.04175">
        <ele>156.351563</ele>
        <time>2009-11-10T15:00:25Z</time>
      </trkpt>
      <trkpt lat="48.70961" lon="2.04192">
        <ele>153.467651</ele>
        <time>2009-11-10T15:00:44Z</time>
      </trkpt>
      <trkpt lat="48.70959" lon="2.04197">
        <ele>152.506348</ele>
        <time>2009-11-10T15:00:48Z</time>
      </trkpt>
      <trkpt lat="48.70956" lon="2.04213">
        <ele>150.583618</ele>
        <time>2009-11-10T15:01:01Z</time>
      </trkpt>
      <trkpt lat="48.70949" lon="2.04219">
        <ele>148.18042</ele>
        <time>2009-11-10T15:01:15Z</time>
      </trkpt>
      <trkpt lat="48.70948" lon="2.04212">
        <ele>147.218994</ele>
        <time>2009-11-10T15:01:19Z</time>
      </trkpt>
      <trkpt lat="48.70946" lon="2.04188">
        <ele>143.85437</ele>
        <time>2009-11-10T15:01:35Z</time>
      </trkpt>
      <trkpt lat="48.70945" lon="2.04172">
        <ele>140.970459</ele>
        <time>2009-11-10T15:01:50Z</time>
      </trkpt>
      <trkpt lat="48.70938" lon="2.04168">
        <ele>139.528442</ele>
        <time>2009-11-10T15:02:05Z</time>
      </trkpt>
      <trkpt lat="48.70931" lon="2.04187">
        <ele>138.567261</ele>
        <time>2009-11-10T15:02:22Z</time>
      </trkpt>
      <trkpt lat="48.70924" lon="2.04183">
        <ele>135.202515</ele>
        <time>2009-11-10T15:02:37Z</time>
      </trkpt>
      <trkpt lat="48.7092" lon="2.04178">
        <ele>131.837891</ele>
        <time>2009-11-10T15:02:51Z</time>
      </trkpt>
      <trkpt lat="48.70916" lon="2.04174">
        <ele>130.395996</ele>
        <time>2009-11-10T15:03:02Z</time>
      </trkpt>
      <trkpt lat="48.70914" lon="2.04163">
        <ele>127.031372</ele>
        <time>2009-11-10T15:03:17Z</time>
      </trkpt>
      <trkpt lat="48.70912" lon="2.04154">
        <ele>126.550659</ele>
        <time>2009-11-10T15:03:24Z</time>
      </trkpt>
      <trkpt lat="48.70908" lon="2.04136">
        <ele>123.666748</ele>
        <time>2009-11-10T15:03:39Z</time>
      </trkpt>
      <trkpt lat="48.70906" lon="2.04123">
        <ele>122.224731</ele>
        <time>2009-11-10T15:03:52Z</time>
      </trkpt>
      <trkpt lat="48.70905" lon="2.04112">
        <ele>119.34082</ele>
        <time>2009-11-10T15:04:04Z</time>
      </trkpt>
      <trkpt lat="48.70903" lon="2.04096">
        <ele>117.418213</ele>
        <time>2009-11-10T15:04:20Z</time>
      </trkpt>
      <trkpt lat="48.70893" lon="2.04076">
        <ele>115.014893</ele>
        <time>2009-11-10T15:04:35Z</time>
      </trkpt>
      <trkpt lat="48.70892" lon="2.04081">
        <ele>115.014893</ele>
        <time>2009-11-10T15:04:46Z</time>
      </trkpt>
      <trkpt lat="48.70884" lon="2.04104">
        <ele>112.611572</ele>
        <time>2009-11-10T15:05:05Z</time>
      </trkpt>
      <trkpt lat="48.70874" lon="2.04121">
        <ele>109.727661</ele>
        <time>2009-11-10T15:05:24Z</time>
      </trkpt>
      <trkpt lat="48.70865" lon="2.04129">
        <ele>107.805054</ele>
        <time>2009-11-10T15:05:38Z</time>
      </trkpt>
      <trkpt lat="48.7085" lon="2.04113">
        <ele>104.921021</ele>
        <time>2009-11-10T15:05:58Z</time>
      </trkpt>
      <trkpt lat="48.70848" lon="2.04111">
        <ele>103.479004</ele>
        <time>2009-11-10T15:06:00Z</time>
      </trkpt>
      <trkpt lat="48.70825" lon="2.04096">
        <ele>100.595093</ele>
        <time>2009-11-10T15:06:24Z</time>
      </trkpt>
      <trkpt lat="48.70823" lon="2.04096">
        <ele>100.114502</ele>
        <time>2009-11-10T15:06:26Z</time>
      </trkpt>
      <trkpt lat="48.7082" lon="2.04104">
        <ele>100.595093</ele>
        <time>2009-11-10T15:06:35Z</time>
      </trkpt>
      <trkpt lat="48.70817" lon="2.04108">
        <ele>99.633789</ele>
        <time>2009-11-10T15:06:39Z</time>
      </trkpt>
      <trkpt lat="48.70807" lon="2.04115">
        <ele>99.153076</ele>
        <time>2009-11-10T15:06:48Z</time>
      </trkpt>
      <trkpt lat="48.70783" lon="2.04116">
        <ele>97.230469</ele>
        <time>2009-11-10T15:07:10Z</time>
      </trkpt>
      <trkpt lat="48.70776" lon="2.04118">
        <ele>95.307739</ele>
        <time>2009-11-10T15:07:27Z</time>
      </trkpt>
      <trkpt lat="48.70767" lon="2.04115">
        <ele>94.346558</ele>
        <time>2009-11-10T15:07:48Z</time>
      </trkpt>
      <trkpt lat="48.70761" lon="2.04098">
        <ele>94.346558</ele>
        <time>2009-11-10T15:08:00Z</time>
      </trkpt>
      <trkpt lat="48.70759" lon="2.04086">
        <ele>93.865845</ele>
        <time>2009-11-10T15:08:06Z</time>
      </trkpt>
      <trkpt lat="48.70759" lon="2.04051">
        <ele>94.346558</ele>
        <time>2009-11-10T15:08:25Z</time>
      </trkpt>
      <trkpt lat="48.70759" lon="2.04024">
        <ele>94.827148</ele>
        <time>2009-11-10T15:08:42Z</time>
      </trkpt>
      <trkpt lat="48.70756" lon="2.03999">
        <ele>95.307739</ele>
        <time>2009-11-10T15:08:56Z</time>
      </trkpt>
      <trkpt lat="48.70756" lon="2.03976">
        <ele>95.307739</ele>
        <time>2009-11-10T15:09:13Z</time>
      </trkpt>
      <trkpt lat="48.70748" lon="2.03942">
        <ele>94.346558</ele>
        <time>2009-11-10T15:09:36Z</time>
      </trkpt>
      <trkpt lat="48.70748" lon="2.03938">
        <ele>94.346558</ele>
        <time>2009-11-10T15:09:42Z</time>
      </trkpt>
      <trkpt lat="48.70729" lon="2.0395">
        <ele>93.385132</ele>
        <time>2009-11-10T15:10:02Z</time>
      </trkpt>
      <trkpt lat="48.70714" lon="2.03962">
        <ele>91.462524</ele>
        <time>2009-11-10T15:10:21Z</time>
      </trkpt>
      <trkpt lat="48.7069" lon="2.03975">
        <ele>90.02063</ele>
        <time>2009-11-10T15:10:47Z</time>
      </trkpt>
      <trkpt lat="48.70672" lon="2.0398">
        <ele>89.539917</ele>
        <time>2009-11-10T15:11:06Z</time>
      </trkpt>
      <trkpt lat="48.7067" lon="2.03981">
        <ele>89.539917</ele>
        <time>2009-11-10T15:11:27Z</time>
      </trkpt>
      <trkpt lat="48.70668" lon="2.0398">
        <ele>89.539917</ele>
        <time>2009-11-10T15:11:47Z</time>
      </trkpt>
      <trkpt lat="48.70669" lon="2.03982">
        <ele>89.539917</ele>
        <time>2009-11-10T15:13:04Z</time>
      </trkpt>
      <trkpt lat="48.7067" lon="2.03981">
        <ele>89.059326</ele>
        <time>2009-11-10T15:13:46Z</time>
      </trkpt>
      <trkpt lat="48.7067" lon="2.0398">
        <ele>88.578735</ele>
        <time>2009-11-10T15:14:37Z</time>
      </trkpt>
      <trkpt lat="48.70669" lon="2.03982">
        <ele>88.098022</ele>
        <time>2009-11-10T15:15:24Z</time>
      </trkpt>
      <trkpt lat="48.70663" lon="2.03977">
        <ele>88.098022</ele>
        <time>2009-11-10T15:15:37Z</time>
      </trkpt>
      <trkpt lat="48.70653" lon="2.03961">
        <ele>88.578735</ele>
        <time>2009-11-10T15:15:54Z</time>
      </trkpt>
      <trkpt lat="48.7064" lon="2.03946">
        <ele>88.578735</ele>
        <time>2009-11-10T15:16:09Z</time>
      </trkpt>
      <trkpt lat="48.70626" lon="2.03949">
        <ele>89.059326</ele>
        <time>2009-11-10T15:16:26Z</time>
      </trkpt>
      <trkpt lat="48.7062" lon="2.0396">
        <ele>87.617188</ele>
        <time>2009-11-10T15:16:45Z</time>
      </trkpt>
      <trkpt lat="48.70618" lon="2.03958">
        <ele>88.098022</ele>
        <time>2009-11-10T15:17:12Z</time>
      </trkpt>
      <trkpt lat="48.70618" lon="2.03959">
        <ele>88.578735</ele>
        <time>2009-11-10T15:17:39Z</time>
      </trkpt>
      <trkpt lat="48.70619" lon="2.0396">
        <ele>88.578735</ele>
        <time>2009-11-10T15:18:08Z</time>
      </trkpt>
      <trkpt lat="48.70619" lon="2.0396">
        <ele>88.098022</ele>
        <time>2009-11-10T15:18:30Z</time>
      </trkpt>
      <trkpt lat="48.70617" lon="2.03965">
        <ele>88.578735</ele>
        <time>2009-11-10T15:19:00Z</time>
      </trkpt>
      <trkpt lat="48.70616" lon="2.03964">
        <ele>87.617188</ele>
        <time>2009-11-10T15:19:32Z</time>
      </trkpt>
      <trkpt lat="48.70615" lon="2.03965">
        <ele>87.617188</ele>
        <time>2009-11-10T15:20:14Z</time>
      </trkpt>
      <trkpt lat="48.70618" lon="2.03966">
        <ele>87.617188</ele>
        <time>2009-11-10T15:20:51Z</time>
      </trkpt>
      <trkpt lat="48.70622" lon="2.03984">
        <ele>88.098022</ele>
        <time>2009-11-10T15:21:09Z</time>
      </trkpt>
      <trkpt lat="48.70625" lon="2.03993">
        <ele>87.617188</ele>
        <time>2009-11-10T15:21:25Z</time>
      </trkpt>
      <trkpt lat="48.70622" lon="2.03989">
        <ele>88.098022</ele>
        <time>2009-11-10T15:22:04Z</time>
      </trkpt>
      <trkpt lat="48.70622" lon="2.03991">
        <ele>87.136597</ele>
        <time>2009-11-10T15:23:09Z</time>
      </trkpt>
    </trkseg>
  </trk>
</gpx>